Wetterdaten: Montag, 19.01.2026
Datum Zeit Temp. Aussen Temp. o. S. Temp +5cm Feuchte Auss Luftdruck Regen Sonnenschein Regendauer Solar Windböen Empfang
19.01.2026 00:00 2,2 °C 1,1 °C -2,2 °C 92 % 1019,9 hPa 0,0 l/m² 0 min 0 min 0 W/m² 6,4 km/h (2 Bft) 96,08 %
19.01.2026 00:02 2,2 °C 1,1 °C -2,2 °C 92 % 1019,9 hPa 0,0 l/m² 0 min 0 min 0 W/m² 6,4 km/h (2 Bft) 97,62 %
19.01.2026 00:04 2,2 °C 1,1 °C -2,2 °C 92 % 1019,9 hPa 0,0 l/m² 0 min 0 min 0 W/m² 6,4 km/h (2 Bft) 97,83 %
19.01.2026 00:07 2,2 °C 1,1 °C -2,2 °C 92 % 1019,9 hPa 0,0 l/m² 0 min 0 min 0 W/m² 6,4 km/h (2 Bft) 97,83 %
19.01.2026 00:10 2,1 °C 1,1 °C -2,2 °C 92 % 1019,9 hPa 0,0 l/m² 0 min 0 min 0 W/m² 9,7 km/h (2 Bft) 97,24 %
19.01.2026 00:12 2,1 °C 1,1 °C -2,2 °C 92 % 1019,8 hPa 0,0 l/m² 0 min 0 min 0 W/m² 6,4 km/h (2 Bft) 95,65 %
19.01.2026 00:14 2,1 °C 1,1 °C -2,2 °C 92 % 1019,8 hPa 0,0 l/m² 0 min 0 min 0 W/m² 3,2 km/h (1 Bft) 97,83 %
19.01.2026 00:16 2,1 °C 1,1 °C -2,2 °C 92 % 1019,8 hPa 0,0 l/m² 0 min 0 min 0 W/m² 9,7 km/h (2 Bft) 97,78 %
19.01.2026 00:18 2,1 °C 1,1 °C -2,2 °C 92 % 1019,8 hPa 0,0 l/m² 0 min 0 min 0 W/m² 6,4 km/h (2 Bft) 95,56 %
19.01.2026 00:20 2,1 °C 1,1 °C -2,2 °C 92 % 1019,8 hPa 0,0 l/m² 0 min 0 min 0 W/m² 6,4 km/h (2 Bft) 97,50 %
19.01.2026 00:22 2,1 °C 1,1 °C -2,2 °C 92 % 1019,7 hPa 0,0 l/m² 0 min 0 min 0 W/m² 6,4 km/h (2 Bft) 97,87 %
19.01.2026 00:24 2,1 °C 1,1 °C -2,2 °C 92 % 1019,7 hPa 0,0 l/m² 0 min 0 min 0 W/m² 16,1 km/h (3 Bft) 100,00 %
19.01.2026 00:26 2,1 °C 1,1 °C -2,2 °C 92 % 1019,7 hPa 0,0 l/m² 0 min 0 min 0 W/m² 6,4 km/h (2 Bft) 95,65 %
19.01.2026 00:28 2,0 °C 1,1 °C -2,2 °C 92 % 1019,7 hPa 0,0 l/m² 0 min 0 min 0 W/m² 12,9 km/h (3 Bft) 97,78 %
19.01.2026 00:30 2,0 °C 1,1 °C -2,2 °C 92 % 1019,7 hPa 0,0 l/m² 0 min 0 min 0 W/m² 6,4 km/h (2 Bft) 97,83 %
19.01.2026 00:32 2,0 °C 1,1 °C -2,2 °C 92 % 1019,7 hPa 0,0 l/m² 0 min 0 min 0 W/m² 6,4 km/h (2 Bft) 97,83 %
19.01.2026 00:34 2,0 °C 1,1 °C -2,2 °C 92 % 1019,6 hPa 0,0 l/m² 0 min 0 min 0 W/m² 6,4 km/h (2 Bft) 95,56 %
19.01.2026 00:36 2,0 °C 1,1 °C -2,2 °C 92 % 1019,6 hPa 0,0 l/m² 0 min 0 min 0 W/m² 6,4 km/h (2 Bft) 95,12 %
19.01.2026 00:38 2,0 °C 1,1 °C -2,2 °C 93 % 1019,7 hPa 0,0 l/m² 0 min 0 min 0 W/m² 3,2 km/h (1 Bft) 93,62 %
19.01.2026 00:40 2,0 °C 1,1 °C -2,2 °C 93 % 1019,7 hPa 0,0 l/m² 0 min 0 min 0 W/m² 6,4 km/h (2 Bft) 97,83 %
19.01.2026 00:42 1,9 °C 1,1 °C -2,2 °C 92 % 1019,7 hPa 0,0 l/m² 0 min 0 min 0 W/m² 6,4 km/h (2 Bft) 98,31 %
19.01.2026 00:44 1,9 °C 1,1 °C -2,2 °C 92 % 1019,7 hPa 0,0 l/m² 0 min 0 min 0 W/m² 6,4 km/h (2 Bft) 97,14 %
19.01.2026 00:46 1,9 °C 1,1 °C -2,2 °C 92 % 1019,6 hPa 0,0 l/m² 0 min 0 min 0 W/m² 6,4 km/h (2 Bft) 98,28 %
19.01.2026 00:48 1,9 °C 1,1 °C -2,2 °C 92 % 1019,5 hPa 0,0 l/m² 0 min 0 min 0 W/m² 6,4 km/h (2 Bft) 97,78 %
19.01.2026 00:50 1,9 °C 1,1 °C -2,2 °C 92 % 1019,5 hPa 0,0 l/m² 0 min 0 min 0 W/m² 3,2 km/h (1 Bft) 97,83 %
19.01.2026 00:52 1,9 °C 1,1 °C -2,2 °C 92 % 1019,5 hPa 0,0 l/m² 0 min 0 min 0 W/m² 3,2 km/h (1 Bft) 97,83 %
19.01.2026 00:54 1,9 °C 1,1 °C -2,2 °C 92 % 1019,5 hPa 0,0 l/m² 0 min 0 min 0 W/m² 3,2 km/h (1 Bft) 94,00 %
19.01.2026 00:56 1,9 °C 1,1 °C -2,2 °C 92 % 1019,5 hPa 0,0 l/m² 0 min 0 min 0 W/m² 6,4 km/h (2 Bft) 97,22 %
19.01.2026 00:58 1,8 °C 1,1 °C -2,2 °C 93 % 1019,4 hPa 0,0 l/m² 0 min 0 min 0 W/m² 6,4 km/h (2 Bft) 100,00 %
19.01.2026 01:00 1,8 °C 1,1 °C -2,2 °C 93 % 1019,5 hPa 0,0 l/m² 0 min 0 min 0 W/m² 12,9 km/h (3 Bft) 100,00 %
19.01.2026 01:02 1,8 °C 1,1 °C -2,2 °C 93 % 1019,5 hPa 0,0 l/m² 0 min 0 min 0 W/m² 3,2 km/h (1 Bft) 100,00 %
19.01.2026 01:04 1,8 °C 1,1 °C -2,2 °C 93 % 1019,4 hPa 0,0 l/m² 0 min 0 min 0 W/m² 6,4 km/h (2 Bft) 100,00 %
19.01.2026 01:08 1,8 °C 1,1 °C -2,2 °C 93 % 1019,4 hPa 0,0 l/m² 0 min 0 min 0 W/m² 9,7 km/h (2 Bft) 99,00 %
19.01.2026 01:10 1,8 °C 1,1 °C -2,2 °C 93 % 1019,4 hPa 0,0 l/m² 0 min 0 min 0 W/m² 6,4 km/h (2 Bft) 95,92 %
19.01.2026 01:12 1,8 °C 1,1 °C -2,2 °C 93 % 1019,4 hPa 0,0 l/m² 0 min 0 min 0 W/m² 6,4 km/h (2 Bft) 97,96 %
19.01.2026 01:14 1,8 °C 1,1 °C -2,2 °C 93 % 1019,3 hPa 0,0 l/m² 0 min 0 min 0 W/m² 3,2 km/h (1 Bft) 97,22 %
19.01.2026 01:16 1,8 °C 1,1 °C -2,2 °C 93 % 1019,4 hPa 0,0 l/m² 0 min 0 min 0 W/m² 3,2 km/h (1 Bft) 93,62 %
19.01.2026 01:18 1,8 °C 1,1 °C -2,2 °C 93 % 1019,4 hPa 0,0 l/m² 0 min 0 min 0 W/m² 12,9 km/h (3 Bft) 96,43 %
19.01.2026 01:20 1,8 °C 1,1 °C -2,2 °C 93 % 1019,3 hPa 0,0 l/m² 0 min 0 min 0 W/m² 12,9 km/h (3 Bft) 97,37 %
19.01.2026 01:22 1,8 °C 1,1 °C -2,2 °C 93 % 1019,3 hPa 0,0 l/m² 0 min 0 min 0 W/m² 6,4 km/h (2 Bft) 97,87 %
19.01.2026 01:24 1,8 °C 1,1 °C -2,2 °C 93 % 1019,3 hPa 0,0 l/m² 0 min 0 min 0 W/m² 6,4 km/h (2 Bft) 97,87 %
19.01.2026 01:26 1,8 °C 1,1 °C -2,2 °C 93 % 1019,3 hPa 0,0 l/m² 0 min 0 min 0 W/m² 3,2 km/h (1 Bft) 96,36 %
19.01.2026 01:28 1,8 °C 1,1 °C -2,2 °C 93 % 1019,2 hPa 0,0 l/m² 0 min 0 min 0 W/m² 3,2 km/h (1 Bft) 96,00 %
19.01.2026 01:30 1,8 °C 1,1 °C -2,2 °C 93 % 1019,3 hPa 0,0 l/m² 0 min 0 min 0 W/m² 9,7 km/h (2 Bft) 97,14 %
19.01.2026 01:34 1,8 °C 1,1 °C -2,2 °C 93 % 1019,2 hPa 0,0 l/m² 0 min 0 min 0 W/m² 6,4 km/h (2 Bft) 98,04 %
19.01.2026 01:36 1,7 °C 1,1 °C -2,2 °C 93 % 1019,2 hPa 0,0 l/m² 0 min 0 min 0 W/m² 6,4 km/h (2 Bft) 96,00 %
19.01.2026 01:38 1,7 °C 0,6 °C -2,2 °C 93 % 1019,2 hPa 0,0 l/m² 0 min 0 min 0 W/m² 3,2 km/h (1 Bft) 97,83 %
19.01.2026 01:40 1,7 °C 0,6 °C -2,2 °C 93 % 1019,2 hPa 0,0 l/m² 0 min 0 min 0 W/m² 12,9 km/h (3 Bft) 97,22 %
19.01.2026 01:42 1,7 °C 0,6 °C -2,2 °C 93 % 1019,2 hPa 0,0 l/m² 0 min 0 min 0 W/m² 6,4 km/h (2 Bft) 97,87 %
19.01.2026 01:44 1,7 °C 0,6 °C -2,2 °C 93 % 1019,2 hPa 0,0 l/m² 0 min 0 min 0 W/m² 6,4 km/h (2 Bft) 95,74 %
19.01.2026 01:46 1,7 °C 0,6 °C -2,2 °C 93 % 1019,2 hPa 0,0 l/m² 0 min 0 min 0 W/m² 9,7 km/h (2 Bft) 95,74 %
19.01.2026 01:48 1,7 °C 0,6 °C -2,2 °C 93 % 1019,2 hPa 0,0 l/m² 0 min 0 min 0 W/m² 12,9 km/h (3 Bft) 95,74 %
19.01.2026 01:50 1,7 °C 0,6 °C -2,2 °C 93 % 1019,2 hPa 0,0 l/m² 0 min 0 min 0 W/m² 3,2 km/h (1 Bft) 97,96 %
19.01.2026 01:52 1,7 °C 0,6 °C -2,2 °C 93 % 1019,1 hPa 0,0 l/m² 0 min 0 min 0 W/m² 6,4 km/h (2 Bft) 97,78 %
19.01.2026 01:54 1,6 °C 0,6 °C -2,2 °C 93 % 1019,1 hPa 0,0 l/m² 0 min 0 min 0 W/m² 6,4 km/h (2 Bft) 98,11 %
19.01.2026 01:56 1,6 °C 0,6 °C -2,2 °C 93 % 1019,1 hPa 0,0 l/m² 0 min 0 min 0 W/m² 16,1 km/h (3 Bft) 95,74 %
19.01.2026 01:58 1,6 °C 0,6 °C -2,2 °C 93 % 1019,0 hPa 0,0 l/m² 0 min 0 min 0 W/m² 12,9 km/h (3 Bft) 91,49 %
19.01.2026 02:00 1,6 °C 0,6 °C -2,2 °C 93 % 1019,1 hPa 0,0 l/m² 0 min 0 min 0 W/m² 12,9 km/h (3 Bft) 97,83 %
19.01.2026 02:02 1,6 °C 0,6 °C -2,2 °C 93 % 1019,0 hPa 0,0 l/m² 0 min 0 min 0 W/m² 12,9 km/h (3 Bft) 91,30 %
19.01.2026 02:04 1,6 °C 0,6 °C -2,2 °C 93 % 1019,0 hPa 0,0 l/m² 0 min 0 min 0 W/m² 12,9 km/h (3 Bft) 95,56 %
19.01.2026 02:06 1,6 °C 0,6 °C -2,2 °C 93 % 1019,0 hPa 0,0 l/m² 0 min 0 min 0 W/m² 6,4 km/h (2 Bft) 98,04 %
19.01.2026 02:08 1,6 °C 0,6 °C -2,2 °C 93 % 1019,0 hPa 0,0 l/m² 0 min 0 min 0 W/m² 16,1 km/h (3 Bft) 95,74 %
19.01.2026 02:10 1,6 °C 0,6 °C -2,2 °C 93 % 1019,0 hPa 0,0 l/m² 0 min 0 min 0 W/m² 6,4 km/h (2 Bft) 95,74 %
19.01.2026 02:12 1,6 °C 0,6 °C -2,2 °C 93 % 1019,0 hPa 0,0 l/m² 0 min 0 min 0 W/m² 6,4 km/h (2 Bft) 95,65 %
19.01.2026 02:14 1,6 °C 0,6 °C -2,2 °C 93 % 1019,0 hPa 0,0 l/m² 0 min 0 min 0 W/m² 6,4 km/h (2 Bft) 95,56 %
19.01.2026 02:16 1,6 °C 0,6 °C -2,2 °C 93 % 1019,1 hPa 0,0 l/m² 0 min 0 min 0 W/m² 3,2 km/h (1 Bft) 93,48 %
19.01.2026 02:18 1,5 °C 0,6 °C -2,2 °C 93 % 1019,0 hPa 0,0 l/m² 0 min 0 min 0 W/m² 6,4 km/h (2 Bft) 93,48 %
19.01.2026 02:20 1,5 °C 0,6 °C -2,2 °C 93 % 1019,0 hPa 0,0 l/m² 0 min 0 min 0 W/m² 3,2 km/h (1 Bft) 95,56 %
19.01.2026 02:22 1,5 °C 0,6 °C -2,2 °C 93 % 1019,0 hPa 0,0 l/m² 0 min 0 min 0 W/m² 9,7 km/h (2 Bft) 95,12 %
19.01.2026 02:24 1,4 °C 0,6 °C -2,2 °C 93 % 1019,0 hPa 0,0 l/m² 0 min 0 min 0 W/m² 6,4 km/h (2 Bft) 94,83 %
19.01.2026 02:26 1,4 °C 0,6 °C -2,2 °C 93 % 1019,0 hPa 0,0 l/m² 0 min 0 min 0 W/m² 6,4 km/h (2 Bft) 93,48 %
19.01.2026 02:28 1,4 °C 0,6 °C -2,8 °C 93 % 1019,0 hPa 0,0 l/m² 0 min 0 min 0 W/m² 3,2 km/h (1 Bft) 95,56 %
19.01.2026 02:30 1,4 °C 0,6 °C -2,8 °C 94 % 1019,1 hPa 0,0 l/m² 0 min 0 min 0 W/m² 3,2 km/h (1 Bft) 93,48 %
19.01.2026 02:32 1,4 °C 0,6 °C -2,8 °C 94 % 1019,2 hPa 0,0 l/m² 0 min 0 min 0 W/m² 6,4 km/h (2 Bft) 95,56 %
19.01.2026 02:34 1,4 °C 0,6 °C -2,8 °C 94 % 1019,1 hPa 0,0 l/m² 0 min 0 min 0 W/m² 6,4 km/h (2 Bft) 97,56 %
19.01.2026 02:36 1,4 °C 0,6 °C -2,8 °C 94 % 1019,1 hPa 0,0 l/m² 0 min 0 min 0 W/m² 3,2 km/h (1 Bft) 94,83 %
19.01.2026 02:38 1,4 °C 0,6 °C -2,8 °C 94 % 1019,2 hPa 0,0 l/m² 0 min 0 min 0 W/m² 12,9 km/h (3 Bft) 52,38 %
19.01.2026 02:40 1,3 °C 0,6 °C -2,8 °C 94 % 1019,1 hPa 0,0 l/m² 0 min 0 min 0 W/m² 6,4 km/h (2 Bft) 97,87 %
19.01.2026 02:42 1,3 °C 0,6 °C -2,8 °C 94 % 1019,2 hPa 0,0 l/m² 0 min 0 min 0 W/m² 3,2 km/h (1 Bft) 100,00 %
19.01.2026 02:44 1,3 °C 0,6 °C -2,8 °C 94 % 1019,1 hPa 0,0 l/m² 0 min 0 min 0 W/m² 3,2 km/h (1 Bft) 97,83 %
19.01.2026 02:46 1,3 °C 0,6 °C -2,8 °C 94 % 1019,1 hPa 0,0 l/m² 0 min 0 min 0 W/m² 9,7 km/h (2 Bft) 97,83 %
19.01.2026 02:48 1,3 °C 0,6 °C -2,8 °C 94 % 1019,1 hPa 0,0 l/m² 0 min 0 min 0 W/m² 6,4 km/h (2 Bft) 100,00 %
19.01.2026 02:50 1,3 °C 0,6 °C -2,8 °C 94 % 1019,1 hPa 0,0 l/m² 0 min 0 min 0 W/m² 6,4 km/h (2 Bft) 98,28 %
19.01.2026 02:52 1,3 °C 0,6 °C -2,8 °C 94 % 1019,1 hPa 0,0 l/m² 0 min 0 min 0 W/m² 6,4 km/h (2 Bft) 100,00 %
19.01.2026 02:54 1,3 °C 0,6 °C -2,8 °C 94 % 1019,2 hPa 0,0 l/m² 0 min 0 min 0 W/m² 12,9 km/h (3 Bft) 100,00 %
19.01.2026 02:56 1,2 °C 0,6 °C -2,8 °C 94 % 1019,2 hPa 0,0 l/m² 0 min 0 min 0 W/m² 6,4 km/h (2 Bft) 97,83 %
19.01.2026 02:58 1,2 °C 0,6 °C -2,8 °C 94 % 1019,1 hPa 0,0 l/m² 0 min 0 min 0 W/m² 6,4 km/h (2 Bft) 100,00 %
19.01.2026 03:00 1,2 °C 0,6 °C -2,8 °C 94 % 1019,2 hPa 0,0 l/m² 0 min 0 min 0 W/m² 6,4 km/h (2 Bft) 100,00 %
19.01.2026 03:02 1,2 °C 0,6 °C -2,8 °C 94 % 1019,1 hPa 0,0 l/m² 0 min 0 min 0 W/m² 3,2 km/h (1 Bft) 97,83 %
19.01.2026 03:04 1,2 °C 0,0 °C -2,8 °C 94 % 1019,2 hPa 0,0 l/m² 0 min 0 min 0 W/m² 3,2 km/h (1 Bft) 98,33 %
19.01.2026 03:06 1,2 °C 0,0 °C -2,8 °C 94 % 1019,1 hPa 0,0 l/m² 0 min 0 min 0 W/m² 3,2 km/h (1 Bft) 100,00 %
19.01.2026 03:08 1,2 °C 0,0 °C -2,8 °C 94 % 1019,1 hPa 0,0 l/m² 0 min 0 min 0 W/m² 3,2 km/h (1 Bft) 97,56 %
19.01.2026 03:10 1,2 °C 0,0 °C -2,8 °C 94 % 1019,1 hPa 0,0 l/m² 0 min 0 min 0 W/m² 6,4 km/h (2 Bft) 100,00 %
19.01.2026 03:12 1,1 °C 0,0 °C -2,8 °C 94 % 1019,1 hPa 0,0 l/m² 0 min 0 min 0 W/m² 6,4 km/h (2 Bft) 100,00 %
19.01.2026 03:14 1,1 °C 0,0 °C -2,8 °C 94 % 1019,2 hPa 0,0 l/m² 0 min 0 min 0 W/m² 3,2 km/h (1 Bft) 97,83 %
19.01.2026 03:16 1,1 °C 0,0 °C -2,8 °C 94 % 1019,2 hPa 0,0 l/m² 0 min 0 min 0 W/m² 3,2 km/h (1 Bft) 100,00 %
19.01.2026 03:18 1,1 °C 0,0 °C -2,8 °C 94 % 1019,2 hPa 0,0 l/m² 0 min 0 min 0 W/m² 0,0 km/h (0 Bft) 100,00 %
19.01.2026 03:20 1,1 °C 0,0 °C -2,8 °C 94 % 1019,1 hPa 0,0 l/m² 0 min 0 min 0 W/m² 0,0 km/h (0 Bft) 97,87 %
19.01.2026 03:22 1,0 °C 0,0 °C -2,8 °C 94 % 1019,1 hPa 0,0 l/m² 0 min 0 min 0 W/m² 0,0 km/h (0 Bft) 97,92 %
19.01.2026 03:24 1,0 °C 0,0 °C -2,8 °C 94 % 1019,1 hPa 0,0 l/m² 0 min 0 min 0 W/m² 0,0 km/h (0 Bft) 100,00 %
19.01.2026 03:26 1,0 °C 0,0 °C -2,8 °C 94 % 1019,1 hPa 0,0 l/m² 0 min 0 min 0 W/m² 0,0 km/h (0 Bft) 95,74 %
19.01.2026 03:28 0,9 °C 0,0 °C -2,8 °C 94 % 1019,1 hPa 0,0 l/m² 0 min 0 min 0 W/m² 0,0 km/h (0 Bft) 100,00 %
19.01.2026 03:30 0,9 °C 0,0 °C -2,8 °C 94 % 1019,1 hPa 0,0 l/m² 0 min 0 min 0 W/m² 0,0 km/h (0 Bft) 100,00 %
19.01.2026 03:32 0,9 °C 0,0 °C -2,8 °C 94 % 1019,0 hPa 0,0 l/m² 0 min 0 min 0 W/m² 0,0 km/h (0 Bft) 97,62 %
19.01.2026 03:34 0,9 °C 0,0 °C -2,8 °C 94 % 1019,0 hPa 0,0 l/m² 0 min 0 min 0 W/m² 0,0 km/h (0 Bft) 100,00 %
19.01.2026 03:36 0,9 °C 0,0 °C -2,8 °C 94 % 1019,0 hPa 0,0 l/m² 0 min 0 min 0 W/m² 0,0 km/h (0 Bft) 97,30 %
19.01.2026 03:38 0,8 °C 0,0 °C -2,8 °C 94 % 1019,0 hPa 0,0 l/m² 0 min 0 min 0 W/m² 0,0 km/h (0 Bft) 98,25 %
19.01.2026 03:40 0,8 °C 0,0 °C -2,8 °C 94 % 1019,0 hPa 0,0 l/m² 0 min 0 min 0 W/m² 0,0 km/h (0 Bft) 100,00 %
19.01.2026 03:42 0,8 °C 0,0 °C -2,8 °C 94 % 1019,0 hPa 0,0 l/m² 0 min 0 min 0 W/m² 0,0 km/h (0 Bft) 100,00 %
19.01.2026 03:44 0,8 °C 0,0 °C -2,8 °C 94 % 1019,0 hPa 0,0 l/m² 0 min 0 min 0 W/m² 0,0 km/h (0 Bft) 100,00 %
19.01.2026 03:46 0,8 °C 0,0 °C -2,8 °C 94 % 1019,0 hPa 0,0 l/m² 0 min 0 min 0 W/m² 0,0 km/h (0 Bft) 98,28 %
19.01.2026 03:48 0,8 °C 0,0 °C -2,8 °C 94 % 1019,0 hPa 0,0 l/m² 0 min 0 min 0 W/m² 0,0 km/h (0 Bft) 100,00 %
19.01.2026 03:50 0,8 °C 0,0 °C -2,8 °C 94 % 1019,0 hPa 0,0 l/m² 0 min 0 min 0 W/m² 0,0 km/h (0 Bft) 98,25 %
19.01.2026 03:52 0,8 °C 0,0 °C -2,8 °C 94 % 1019,0 hPa 0,0 l/m² 0 min 0 min 0 W/m² 0,0 km/h (0 Bft) 100,00 %
19.01.2026 03:54 0,8 °C 0,0 °C -2,8 °C 94 % 1019,0 hPa 0,0 l/m² 0 min 0 min 0 W/m² 0,0 km/h (0 Bft) 98,18 %
19.01.2026 03:56 0,8 °C 0,0 °C -2,8 °C 94 % 1019,0 hPa 0,0 l/m² 0 min 0 min 0 W/m² 0,0 km/h (0 Bft) 100,00 %
19.01.2026 03:58 0,8 °C 0,0 °C -2,8 °C 94 % 1019,0 hPa 0,0 l/m² 0 min 0 min 0 W/m² 0,0 km/h (0 Bft) 98,25 %
19.01.2026 04:00 0,8 °C 0,0 °C -2,8 °C 94 % 1018,9 hPa 0,0 l/m² 0 min 0 min 0 W/m² 0,0 km/h (0 Bft) 97,22 %
19.01.2026 04:02 0,8 °C 0,0 °C -2,8 °C 94 % 1018,9 hPa 0,0 l/m² 0 min 0 min 0 W/m² 6,4 km/h (2 Bft) 100,00 %
19.01.2026 04:08 0,7 °C 0,0 °C -2,8 °C 94 % 1018,9 hPa 0,0 l/m² 0 min 0 min 0 W/m² 6,4 km/h (2 Bft) 98,25 %
19.01.2026 04:09 0,7 °C 0,0 °C -3,3 °C 94 % 1018,9 hPa 0,0 l/m² 0 min 0 min 0 W/m² 0,0 km/h (0 Bft) 100,00 %
19.01.2026 04:10 0,7 °C 0,0 °C -3,3 °C 94 % 1018,9 hPa 0,0 l/m² 0 min 0 min 0 W/m² 6,4 km/h (2 Bft) 100,00 %
19.01.2026 04:14 0,7 °C 0,0 °C -2,8 °C 94 % 1018,8 hPa 0,0 l/m² 0 min 0 min 0 W/m² 6,4 km/h (2 Bft) 96,72 %
19.01.2026 04:16 0,7 °C 0,0 °C -2,8 °C 94 % 1018,8 hPa 0,0 l/m² 0 min 0 min 0 W/m² 3,2 km/h (1 Bft) 94,64 %
19.01.2026 04:18 0,7 °C 0,0 °C -2,8 °C 94 % 1018,8 hPa 0,0 l/m² 0 min 0 min 0 W/m² 6,4 km/h (2 Bft) 95,92 %
19.01.2026 04:20 0,7 °C 0,0 °C -2,8 °C 94 % 1018,9 hPa 0,0 l/m² 0 min 0 min 0 W/m² 6,4 km/h (2 Bft) 94,44 %
19.01.2026 04:22 0,7 °C 0,0 °C -2,8 °C 94 % 1018,9 hPa 0,0 l/m² 0 min 0 min 0 W/m² 3,2 km/h (1 Bft) 94,34 %
19.01.2026 04:24 0,8 °C 0,0 °C -2,8 °C 94 % 1018,9 hPa 0,0 l/m² 0 min 0 min 0 W/m² 6,4 km/h (2 Bft) 96,00 %
19.01.2026 04:26 0,7 °C 0,0 °C -2,8 °C 94 % 1018,9 hPa 0,0 l/m² 0 min 0 min 0 W/m² 6,4 km/h (2 Bft) 91,89 %
19.01.2026 04:28 0,7 °C 0,0 °C -3,3 °C 94 % 1018,9 hPa 0,0 l/m² 0 min 0 min 0 W/m² 3,2 km/h (1 Bft) 93,62 %
19.01.2026 04:30 0,7 °C 0,0 °C -3,3 °C 94 % 1018,9 hPa 0,0 l/m² 0 min 0 min 0 W/m² 3,2 km/h (1 Bft) 96,43 %
19.01.2026 04:32 0,7 °C 0,0 °C -3,3 °C 94 % 1018,9 hPa 0,0 l/m² 0 min 0 min 0 W/m² 6,4 km/h (2 Bft) 95,92 %
19.01.2026 04:34 0,7 °C 0,0 °C -3,3 °C 94 % 1018,9 hPa 0,0 l/m² 0 min 0 min 0 W/m² 3,2 km/h (1 Bft) 93,33 %
19.01.2026 04:36 0,7 °C 0,0 °C -3,3 °C 94 % 1018,9 hPa 0,0 l/m² 0 min 0 min 0 W/m² 6,4 km/h (2 Bft) 97,30 %
19.01.2026 04:38 0,7 °C 0,0 °C -3,3 °C 94 % 1018,8 hPa 0,0 l/m² 0 min 0 min 0 W/m² 3,2 km/h (1 Bft) 92,73 %
19.01.2026 04:40 0,7 °C 0,0 °C -3,3 °C 94 % 1018,9 hPa 0,0 l/m² 0 min 0 min 0 W/m² 6,4 km/h (2 Bft) 94,12 %
19.01.2026 04:42 0,7 °C 0,0 °C -3,3 °C 94 % 1018,9 hPa 0,0 l/m² 0 min 0 min 0 W/m² 3,2 km/h (1 Bft) 97,62 %
19.01.2026 04:44 0,7 °C 0,0 °C -2,8 °C 94 % 1018,9 hPa 0,0 l/m² 0 min 0 min 0 W/m² 12,9 km/h (3 Bft) 90,20 %
19.01.2026 04:46 0,7 °C 0,0 °C -2,8 °C 94 % 1018,8 hPa 0,0 l/m² 0 min 0 min 0 W/m² 12,9 km/h (3 Bft) 91,67 %
19.01.2026 04:48 0,7 °C 0,0 °C -2,8 °C 94 % 1018,9 hPa 0,0 l/m² 0 min 0 min 0 W/m² 3,2 km/h (1 Bft) 95,65 %
19.01.2026 04:50 0,6 °C 0,0 °C -2,8 °C 94 % 1018,8 hPa 0,0 l/m² 0 min 0 min 0 W/m² 6,4 km/h (2 Bft) 54,17 %
19.01.2026 04:52 0,6 °C 0,0 °C -3,3 °C 94 % 1018,8 hPa 0,0 l/m² 0 min 0 min 0 W/m² 3,2 km/h (1 Bft) 96,08 %
19.01.2026 04:54 0,6 °C 0,0 °C -3,3 °C 94 % 1018,8 hPa 0,0 l/m² 0 min 0 min 0 W/m² 3,2 km/h (1 Bft) 100,00 %
19.01.2026 04:56 0,6 °C 0,0 °C -3,3 °C 94 % 1018,8 hPa 0,0 l/m² 0 min 0 min 0 W/m² 6,4 km/h (2 Bft) 96,23 %
19.01.2026 04:58 0,6 °C 0,0 °C -3,3 °C 94 % 1018,8 hPa 0,0 l/m² 0 min 0 min 0 W/m² 6,4 km/h (2 Bft) 97,92 %
19.01.2026 05:00 0,6 °C 0,0 °C -3,3 °C 94 % 1018,9 hPa 0,0 l/m² 0 min 0 min 0 W/m² 3,2 km/h (1 Bft) 96,43 %
19.01.2026 05:02 0,6 °C 0,0 °C -3,3 °C 94 % 1018,9 hPa 0,0 l/m² 0 min 0 min 0 W/m² 3,2 km/h (1 Bft) 98,46 %
19.01.2026 05:04 0,6 °C 0,0 °C -3,3 °C 94 % 1018,8 hPa 0,0 l/m² 0 min 0 min 0 W/m² 3,2 km/h (1 Bft) 98,04 %
19.01.2026 05:08 0,6 °C 0,0 °C -3,3 °C 94 % 1018,9 hPa 0,0 l/m² 0 min 0 min 0 W/m² 6,4 km/h (2 Bft) 97,62 %
19.01.2026 05:10 0,6 °C -0,6 °C -3,3 °C 95 % 1018,8 hPa 0,0 l/m² 0 min 0 min 0 W/m² 3,2 km/h (1 Bft) 97,83 %
19.01.2026 05:12 0,6 °C -0,6 °C -3,3 °C 94 % 1018,8 hPa 0,0 l/m² 0 min 0 min 0 W/m² 3,2 km/h (1 Bft) 96,23 %
19.01.2026 05:14 0,6 °C -0,6 °C -3,3 °C 95 % 1018,8 hPa 0,0 l/m² 0 min 0 min 0 W/m² 3,2 km/h (1 Bft) 94,00 %
19.01.2026 05:16 0,6 °C -0,6 °C -3,3 °C 95 % 1018,8 hPa 0,0 l/m² 0 min 0 min 0 W/m² 6,4 km/h (2 Bft) 97,37 %
19.01.2026 05:18 0,6 °C -0,6 °C -3,3 °C 95 % 1018,8 hPa 0,0 l/m² 0 min 0 min 0 W/m² 3,2 km/h (1 Bft) 100,00 %
19.01.2026 05:20 0,6 °C -0,6 °C -3,3 °C 95 % 1018,8 hPa 0,0 l/m² 0 min 0 min 0 W/m² 3,2 km/h (1 Bft) 100,00 %
19.01.2026 05:22 0,6 °C -0,6 °C -3,3 °C 95 % 1018,8 hPa 0,0 l/m² 0 min 0 min 0 W/m² 6,4 km/h (2 Bft) 98,04 %
19.01.2026 05:24 0,6 °C -0,6 °C -3,3 °C 95 % 1018,8 hPa 0,0 l/m² 0 min 0 min 0 W/m² 6,4 km/h (2 Bft) 97,30 %
19.01.2026 05:26 0,6 °C -0,6 °C -3,3 °C 95 % 1018,8 hPa 0,0 l/m² 0 min 0 min 0 W/m² 0,0 km/h (0 Bft) 97,87 %
19.01.2026 05:28 0,5 °C -0,6 °C -3,3 °C 95 % 1018,8 hPa 0,0 l/m² 0 min 0 min 0 W/m² 0,0 km/h (0 Bft) 100,00 %
19.01.2026 05:30 0,5 °C -0,6 °C -3,3 °C 95 % 1018,8 hPa 0,0 l/m² 0 min 0 min 0 W/m² 3,2 km/h (1 Bft) 100,00 %
19.01.2026 05:32 0,5 °C -0,6 °C -3,3 °C 95 % 1018,8 hPa 0,0 l/m² 0 min 0 min 0 W/m² 3,2 km/h (1 Bft) 100,00 %
19.01.2026 05:34 0,5 °C -0,6 °C -3,3 °C 95 % 1018,8 hPa 0,0 l/m² 0 min 0 min 0 W/m² 3,2 km/h (1 Bft) 96,23 %
19.01.2026 05:36 0,5 °C -0,6 °C -3,3 °C 95 % 1018,8 hPa 0,0 l/m² 0 min 0 min 0 W/m² 6,4 km/h (2 Bft) 98,04 %
19.01.2026 05:38 0,4 °C -0,6 °C -3,3 °C 94 % 1018,8 hPa 0,0 l/m² 0 min 0 min 0 W/m² 3,2 km/h (1 Bft) 97,22 %
19.01.2026 05:40 0,4 °C -0,6 °C -3,3 °C 94 % 1018,8 hPa 0,0 l/m² 0 min 0 min 0 W/m² 3,2 km/h (1 Bft) 96,30 %
19.01.2026 05:42 0,4 °C -0,6 °C -3,3 °C 94 % 1018,8 hPa 0,0 l/m² 0 min 0 min 0 W/m² 3,2 km/h (1 Bft) 100,00 %
19.01.2026 05:44 0,4 °C -0,6 °C -3,3 °C 94 % 1018,8 hPa 0,0 l/m² 0 min 0 min 0 W/m² 6,4 km/h (2 Bft) 100,00 %
19.01.2026 05:46 0,4 °C -0,6 °C -3,3 °C 94 % 1018,7 hPa 0,0 l/m² 0 min 0 min 0 W/m² 3,2 km/h (1 Bft) 95,65 %
19.01.2026 05:48 0,4 °C -0,6 °C -3,3 °C 94 % 1018,7 hPa 0,0 l/m² 0 min 0 min 0 W/m² 3,2 km/h (1 Bft) 96,36 %
19.01.2026 05:50 0,4 °C -0,6 °C -3,3 °C 94 % 1018,7 hPa 0,0 l/m² 0 min 0 min 0 W/m² 0,0 km/h (0 Bft) 97,44 %
19.01.2026 05:52 0,4 °C -0,6 °C -3,3 °C 94 % 1018,7 hPa 0,0 l/m² 0 min 0 min 0 W/m² 3,2 km/h (1 Bft) 95,74 %
19.01.2026 05:54 0,4 °C -0,6 °C -3,3 °C 94 % 1018,7 hPa 0,0 l/m² 0 min 0 min 0 W/m² 6,4 km/h (2 Bft) 98,15 %
19.01.2026 05:56 0,4 °C -0,6 °C -3,3 °C 94 % 1018,6 hPa 0,0 l/m² 0 min 0 min 0 W/m² 3,2 km/h (1 Bft) 97,96 %
19.01.2026 05:58 0,4 °C -0,6 °C -3,3 °C 95 % 1018,7 hPa 0,0 l/m² 0 min 0 min 0 W/m² 6,4 km/h (2 Bft) 96,15 %
19.01.2026 06:00 0,4 °C -0,6 °C -3,3 °C 95 % 1018,7 hPa 0,0 l/m² 0 min 0 min 0 W/m² 3,2 km/h (1 Bft) 98,46 %
19.01.2026 06:02 0,4 °C -0,6 °C -3,3 °C 95 % 1018,7 hPa 0,0 l/m² 0 min 0 min 0 W/m² 3,2 km/h (1 Bft) 90,00 %
19.01.2026 06:04 0,4 °C 0,0 °C -3,3 °C 95 % 1018,7 hPa 0,0 l/m² 0 min 0 min 0 W/m² 6,4 km/h (2 Bft) 94,74 %
19.01.2026 06:10 0,4 °C 0,0 °C -3,3 °C 95 % 1018,7 hPa 0,0 l/m² 0 min 0 min 0 W/m² 6,4 km/h (2 Bft) 97,14 %
19.01.2026 06:12 0,4 °C 0,0 °C -3,3 °C 95 % 1018,7 hPa 0,0 l/m² 0 min 0 min 0 W/m² 3,2 km/h (1 Bft) 93,62 %
19.01.2026 06:16 0,4 °C 0,0 °C -3,3 °C 95 % 1018,8 hPa 0,0 l/m² 0 min 0 min 0 W/m² 6,4 km/h (2 Bft) 78,64 %
19.01.2026 06:18 0,4 °C 0,0 °C -3,3 °C 95 % 1018,8 hPa 0,0 l/m² 0 min 0 min 0 W/m² 6,4 km/h (2 Bft) 97,30 %
19.01.2026 06:20 0,4 °C 0,0 °C -3,3 °C 95 % 1018,8 hPa 0,0 l/m² 0 min 0 min 0 W/m² 12,9 km/h (3 Bft) 100,00 %
19.01.2026 06:22 0,4 °C 0,0 °C -3,3 °C 95 % 1018,8 hPa 0,0 l/m² 0 min 0 min 0 W/m² 16,1 km/h (3 Bft) 95,74 %
19.01.2026 06:24 0,4 °C 0,0 °C -2,8 °C 95 % 1018,7 hPa 0,0 l/m² 0 min 0 min 0 W/m² 12,9 km/h (3 Bft) 100,00 %
19.01.2026 06:26 0,4 °C 0,0 °C -2,8 °C 95 % 1018,7 hPa 0,0 l/m² 0 min 0 min 0 W/m² 6,4 km/h (2 Bft) 94,87 %
19.01.2026 06:28 0,4 °C 0,0 °C -2,8 °C 95 % 1018,7 hPa 0,0 l/m² 0 min 0 min 0 W/m² 6,4 km/h (2 Bft) 97,92 %
19.01.2026 06:30 0,4 °C 0,0 °C -2,8 °C 95 % 1018,8 hPa 0,0 l/m² 0 min 0 min 0 W/m² 6,4 km/h (2 Bft) 94,44 %
19.01.2026 06:32 0,4 °C 0,0 °C -2,8 °C 95 % 1018,8 hPa 0,0 l/m² 0 min 0 min 0 W/m² 9,7 km/h (2 Bft) 94,87 %
19.01.2026 06:34 0,5 °C 0,0 °C -2,8 °C 95 % 1018,8 hPa 0,0 l/m² 0 min 0 min 0 W/m² 3,2 km/h (1 Bft) 97,87 %
19.01.2026 06:36 0,5 °C 0,0 °C -3,3 °C 95 % 1018,8 hPa 0,0 l/m² 0 min 0 min 0 W/m² 6,4 km/h (2 Bft) 100,00 %
19.01.2026 06:38 0,5 °C 0,0 °C -3,3 °C 95 % 1018,8 hPa 0,0 l/m² 0 min 0 min 0 W/m² 9,7 km/h (2 Bft) 96,55 %
19.01.2026 06:40 0,5 °C 0,0 °C -3,3 °C 95 % 1018,8 hPa 0,0 l/m² 0 min 0 min 0 W/m² 3,2 km/h (1 Bft) 98,21 %
19.01.2026 06:42 0,5 °C 0,0 °C -2,8 °C 95 % 1018,8 hPa 0,0 l/m² 0 min 0 min 0 W/m² 6,4 km/h (2 Bft) 94,87 %
19.01.2026 06:44 0,5 °C 0,0 °C -3,3 °C 95 % 1018,8 hPa 0,0 l/m² 0 min 0 min 0 W/m² 3,2 km/h (1 Bft) 98,18 %
19.01.2026 06:46 0,5 °C 0,0 °C -3,3 °C 95 % 1018,8 hPa 0,0 l/m² 0 min 0 min 0 W/m² 3,2 km/h (1 Bft) 97,37 %
19.01.2026 06:48 0,5 °C 0,0 °C -3,3 °C 95 % 1018,9 hPa 0,0 l/m² 0 min 0 min 0 W/m² 3,2 km/h (1 Bft) 98,21 %
19.01.2026 06:50 0,5 °C 0,0 °C -3,3 °C 95 % 1018,9 hPa 0,0 l/m² 0 min 0 min 0 W/m² 6,4 km/h (2 Bft) 97,37 %
19.01.2026 06:52 0,5 °C 0,0 °C -3,3 °C 95 % 1018,9 hPa 0,0 l/m² 0 min 0 min 0 W/m² 6,4 km/h (2 Bft) 96,49 %
19.01.2026 06:54 0,5 °C 0,0 °C -2,8 °C 95 % 1019,0 hPa 0,0 l/m² 0 min 0 min 0 W/m² 9,7 km/h (2 Bft) 97,73 %
19.01.2026 06:56 0,5 °C 0,0 °C -2,8 °C 95 % 1019,0 hPa 0,0 l/m² 0 min 0 min 0 W/m² 6,4 km/h (2 Bft) 94,87 %
19.01.2026 06:58 0,5 °C 0,0 °C -2,8 °C 95 % 1019,0 hPa 0,0 l/m² 0 min 0 min 0 W/m² 9,7 km/h (2 Bft) 96,36 %
19.01.2026 07:00 0,5 °C 0,0 °C -2,8 °C 95 % 1019,0 hPa 0,0 l/m² 0 min 0 min 0 W/m² 3,2 km/h (1 Bft) 100,00 %
19.01.2026 07:02 0,5 °C 0,0 °C -2,8 °C 95 % 1019,1 hPa 0,0 l/m² 0 min 0 min 0 W/m² 12,9 km/h (3 Bft) 92,59 %
19.01.2026 07:04 0,5 °C 0,0 °C -2,8 °C 95 % 1019,0 hPa 0,0 l/m² 0 min 0 min 0 W/m² 9,7 km/h (2 Bft) 97,56 %
19.01.2026 07:08 0,6 °C 0,0 °C -2,8 °C 95 % 1019,1 hPa 0,0 l/m² 0 min 0 min 0 W/m² 12,9 km/h (3 Bft) 98,94 %
19.01.2026 07:10 0,6 °C 0,0 °C -2,8 °C 95 % 1019,1 hPa 0,0 l/m² 0 min 0 min 0 W/m² 12,9 km/h (3 Bft) 100,00 %
19.01.2026 07:12 0,6 °C 0,0 °C -2,8 °C 95 % 1019,1 hPa 0,0 l/m² 0 min 0 min 0 W/m² 16,1 km/h (3 Bft) 97,37 %
19.01.2026 07:14 0,6 °C 0,0 °C -2,8 °C 95 % 1019,1 hPa 0,0 l/m² 0 min 0 min 0 W/m² 16,1 km/h (3 Bft) 95,74 %
19.01.2026 07:16 0,6 °C 0,0 °C -2,8 °C 95 % 1019,1 hPa 0,0 l/m² 0 min 0 min 0 W/m² 22,5 km/h (4 Bft) 100,00 %
19.01.2026 07:18 0,6 °C 0,0 °C -2,8 °C 95 % 1019,1 hPa 0,0 l/m² 0 min 0 min 0 W/m² 9,7 km/h (2 Bft) 100,00 %
19.01.2026 07:20 0,6 °C 0,0 °C -2,8 °C 95 % 1019,1 hPa 0,0 l/m² 0 min 0 min 0 W/m² 16,1 km/h (3 Bft) 100,00 %
19.01.2026 07:22 0,6 °C 0,0 °C -2,8 °C 95 % 1019,1 hPa 0,0 l/m² 0 min 0 min 0 W/m² 12,9 km/h (3 Bft) 96,36 %
19.01.2026 07:24 0,6 °C 0,0 °C -2,8 °C 95 % 1019,1 hPa 0,0 l/m² 0 min 0 min 0 W/m² 12,9 km/h (3 Bft) 100,00 %
19.01.2026 07:26 0,6 °C 0,0 °C -2,8 °C 95 % 1019,1 hPa 0,0 l/m² 0 min 0 min 0 W/m² 12,9 km/h (3 Bft) 100,00 %
19.01.2026 07:28 0,6 °C 0,0 °C -2,8 °C 95 % 1019,1 hPa 0,0 l/m² 0 min 0 min 0 W/m² 12,9 km/h (3 Bft) 98,18 %
19.01.2026 07:30 0,6 °C 0,0 °C -2,8 °C 95 % 1019,1 hPa 0,0 l/m² 0 min 0 min 0 W/m² 6,4 km/h (2 Bft) 100,00 %
19.01.2026 07:32 0,6 °C 0,0 °C -2,8 °C 95 % 1019,1 hPa 0,0 l/m² 0 min 0 min 0 W/m² 9,7 km/h (2 Bft) 95,74 %
19.01.2026 07:34 0,6 °C 0,0 °C -2,8 °C 95 % 1019,1 hPa 0,0 l/m² 0 min 0 min 0 W/m² 6,4 km/h (2 Bft) 93,62 %
19.01.2026 07:36 0,6 °C 0,0 °C -2,8 °C 95 % 1019,1 hPa 0,0 l/m² 0 min 0 min 0 W/m² 16,1 km/h (3 Bft) 98,15 %
19.01.2026 07:38 0,6 °C 0,0 °C -2,8 °C 95 % 1019,1 hPa 0,0 l/m² 0 min 0 min 0 W/m² 12,9 km/h (3 Bft) 94,74 %
19.01.2026 07:40 0,6 °C 0,0 °C -2,8 °C 95 % 1019,1 hPa 0,0 l/m² 0 min 0 min 0 W/m² 9,7 km/h (2 Bft) 95,92 %
19.01.2026 07:42 0,6 °C 0,0 °C -2,8 °C 95 % 1019,1 hPa 0,0 l/m² 0 min 0 min 0 W/m² 6,4 km/h (2 Bft) 95,65 %
19.01.2026 07:44 0,6 °C 0,0 °C -2,8 °C 95 % 1019,1 hPa 0,0 l/m² 0 min 0 min 0 W/m² 6,4 km/h (2 Bft) 96,23 %
19.01.2026 07:46 0,6 °C 0,0 °C -2,8 °C 95 % 1019,1 hPa 0,0 l/m² 0 min 0 min 0 W/m² 3,2 km/h (1 Bft) 91,67 %
19.01.2026 07:48 0,6 °C 0,0 °C -2,8 °C 95 % 1019,1 hPa 0,0 l/m² 0 min 0 min 0 W/m² 9,7 km/h (2 Bft) 95,74 %
19.01.2026 07:50 0,6 °C 0,0 °C -2,8 °C 95 % 1019,2 hPa 0,0 l/m² 0 min 0 min 0 W/m² 6,4 km/h (2 Bft) 92,50 %
19.01.2026 07:52 0,6 °C 0,0 °C -3,3 °C 95 % 1019,2 hPa 0,0 l/m² 0 min 0 min 0 W/m² 9,7 km/h (2 Bft) 93,62 %
19.01.2026 07:54 0,6 °C 0,0 °C -3,3 °C 95 % 1019,1 hPa 0,0 l/m² 0 min 0 min 0 W/m² 16,1 km/h (3 Bft) 93,48 %
19.01.2026 07:56 0,6 °C 0,0 °C -3,3 °C 95 % 1019,2 hPa 0,0 l/m² 0 min 0 min 0 W/m² 6,4 km/h (2 Bft) 95,65 %
19.01.2026 07:58 0,6 °C 0,0 °C -3,3 °C 95 % 1019,2 hPa 0,0 l/m² 0 min 0 min 0 W/m² 12,9 km/h (3 Bft) 96,49 %
19.01.2026 08:00 0,6 °C 0,0 °C -3,3 °C 95 % 1019,2 hPa 0,0 l/m² 0 min 0 min 0 W/m² 9,7 km/h (2 Bft) 95,56 %
19.01.2026 08:02 0,6 °C 0,0 °C -3,3 °C 95 % 1019,2 hPa 0,0 l/m² 0 min 0 min 0 W/m² 12,9 km/h (3 Bft) 97,50 %
19.01.2026 08:04 0,6 °C 0,0 °C -3,3 °C 95 % 1019,2 hPa 0,0 l/m² 0 min 0 min 0 W/m² 12,9 km/h (3 Bft) 97,87 %
19.01.2026 08:06 0,6 °C 0,0 °C -3,3 °C 95 % 1019,3 hPa 0,0 l/m² 0 min 0 min 0 W/m² 6,4 km/h (2 Bft) 94,55 %
19.01.2026 08:08 0,6 °C 0,0 °C -3,3 °C 95 % 1019,2 hPa 0,0 l/m² 0 min 0 min 0 W/m² 12,9 km/h (3 Bft) 97,22 %
19.01.2026 08:10 0,6 °C 0,0 °C -3,3 °C 95 % 1019,3 hPa 0,0 l/m² 0 min 0 min 0 W/m² 6,4 km/h (2 Bft) 98,28 %
19.01.2026 08:12 0,6 °C 0,0 °C -3,3 °C 95 % 1019,3 hPa 0,0 l/m² 0 min 0 min 0 W/m² 12,9 km/h (3 Bft) 95,65 %
19.01.2026 08:14 0,6 °C 0,0 °C -3,3 °C 95 % 1019,3 hPa 0,0 l/m² 0 min 0 min 0 W/m² 12,9 km/h (3 Bft) 97,50 %
19.01.2026 08:18 0,6 °C 0,0 °C -3,3 °C 94 % 1019,3 hPa 0,0 l/m² 0 min 0 min 0 W/m² 12,9 km/h (3 Bft) 95,15 %
19.01.2026 08:19 0,6 °C 0,0 °C -3,3 °C 94 % 1019,3 hPa 0,0 l/m² 0 min 0 min 0 W/m² 6,4 km/h (2 Bft) 95,15 %
19.01.2026 08:22 0,6 °C 0,0 °C -3,3 °C 94 % 1019,4 hPa 0,0 l/m² 0 min 0 min 0 W/m² 6,4 km/h (2 Bft) 96,74 %
19.01.2026 08:25 0,6 °C 0,0 °C -3,3 °C 94 % 1019,4 hPa 0,0 l/m² 0 min 0 min 5 W/m² 6,4 km/h (2 Bft) 97,06 %
19.01.2026 08:26 0,6 °C 0,0 °C -3,3 °C 94 % 1019,4 hPa 0,0 l/m² 0 min 0 min 5 W/m² 6,4 km/h (2 Bft) 100,00 %
19.01.2026 08:30 0,6 °C 0,0 °C -3,3 °C 94 % 1019,5 hPa 0,0 l/m² 0 min 0 min 8 W/m² 6,4 km/h (2 Bft) 98,18 %
19.01.2026 08:32 0,5 °C 0,0 °C -3,3 °C 94 % 1019,5 hPa 0,0 l/m² 0 min 0 min 9 W/m² 6,4 km/h (2 Bft) 100,00 %
19.01.2026 08:34 0,5 °C 0,0 °C -3,3 °C 94 % 1019,5 hPa 0,0 l/m² 0 min 0 min 11 W/m² 6,4 km/h (2 Bft) 97,87 %
19.01.2026 08:36 0,5 °C 0,0 °C -3,3 °C 94 % 1019,5 hPa 0,0 l/m² 0 min 0 min 13 W/m² 3,2 km/h (1 Bft) 100,00 %
19.01.2026 08:38 0,5 °C 0,0 °C -3,3 °C 94 % 1019,6 hPa 0,0 l/m² 0 min 0 min 15 W/m² 3,2 km/h (1 Bft) 100,00 %
19.01.2026 08:40 0,5 °C 0,0 °C -3,3 °C 94 % 1019,5 hPa 0,0 l/m² 0 min 0 min 17 W/m² 3,2 km/h (1 Bft) 96,49 %
19.01.2026 08:42 0,5 °C 0,0 °C -3,3 °C 94 % 1019,6 hPa 0,0 l/m² 2 min 0 min 20 W/m² 6,4 km/h (2 Bft) 97,78 %
19.01.2026 08:44 0,5 °C 0,0 °C -3,3 °C 94 % 1019,6 hPa 0,0 l/m² 2 min 0 min 22 W/m² 3,2 km/h (1 Bft) 97,50 %
19.01.2026 08:46 0,5 °C 0,0 °C -3,3 °C 94 % 1019,6 hPa 0,0 l/m² 2 min 0 min 25 W/m² 3,2 km/h (1 Bft) 95,74 %
19.01.2026 08:48 0,5 °C 0,0 °C -3,3 °C 94 % 1019,6 hPa 0,0 l/m² 2 min 0 min 29 W/m² 3,2 km/h (1 Bft) 97,87 %
19.01.2026 08:50 0,4 °C 0,0 °C -3,3 °C 94 % 1019,5 hPa 0,0 l/m² 2 min 0 min 33 W/m² 6,4 km/h (2 Bft) 97,87 %
19.01.2026 08:52 0,4 °C 0,0 °C -3,3 °C 94 % 1019,5 hPa 0,0 l/m² 2 min 0 min 37 W/m² 3,2 km/h (1 Bft) 95,74 %
19.01.2026 08:54 0,5 °C 0,0 °C -3,3 °C 94 % 1019,6 hPa 0,0 l/m² 2 min 0 min 39 W/m² 6,4 km/h (2 Bft) 97,83 %
19.01.2026 08:56 0,5 °C 0,0 °C -2,8 °C 94 % 1019,6 hPa 0,0 l/m² 2 min 0 min 43 W/m² 6,4 km/h (2 Bft) 97,78 %
19.01.2026 08:58 0,5 °C 0,0 °C -2,8 °C 94 % 1019,6 hPa 0,0 l/m² 2 min 0 min 46 W/m² 6,4 km/h (2 Bft) 97,87 %
19.01.2026 09:00 0,5 °C 0,6 °C -2,8 °C 94 % 1019,6 hPa 0,0 l/m² 2 min 0 min 47 W/m² 9,7 km/h (2 Bft) 97,96 %
19.01.2026 09:02 0,5 °C 0,6 °C -2,8 °C 94 % 1019,6 hPa 0,0 l/m² 2 min 0 min 47 W/m² 6,4 km/h (2 Bft) 97,87 %
19.01.2026 09:04 0,6 °C 0,6 °C -2,8 °C 94 % 1019,6 hPa 0,0 l/m² 2 min 0 min 47 W/m² 6,4 km/h (2 Bft) 97,87 %
19.01.2026 09:06 0,6 °C 0,6 °C -2,8 °C 94 % 1019,6 hPa 0,0 l/m² 2 min 0 min 46 W/m² 3,2 km/h (1 Bft) 97,87 %
19.01.2026 09:08 0,6 °C 0,6 °C -2,8 °C 94 % 1019,6 hPa 0,0 l/m² 2 min 0 min 46 W/m² 6,4 km/h (2 Bft) 98,11 %
19.01.2026 09:10 0,6 °C 0,6 °C -2,8 °C 95 % 1019,6 hPa 0,0 l/m² 2 min 0 min 47 W/m² 6,4 km/h (2 Bft) 97,37 %
19.01.2026 09:14 0,6 °C 0,6 °C -2,8 °C 95 % 1019,6 hPa 0,0 l/m² 0 min 0 min 46 W/m² 12,9 km/h (3 Bft) 95,88 %
19.01.2026 09:18 0,6 °C 0,6 °C -2,2 °C 95 % 1019,7 hPa 0,0 l/m² 0 min 0 min 43 W/m² 12,9 km/h (3 Bft) 98,91 %
19.01.2026 09:20 0,7 °C 0,6 °C -2,2 °C 95 % 1019,6 hPa 0,0 l/m² 0 min 0 min 40 W/m² 9,7 km/h (2 Bft) 100,00 %
19.01.2026 09:22 0,8 °C 0,6 °C -2,2 °C 95 % 1019,7 hPa 0,0 l/m² 0 min 0 min 39 W/m² 12,9 km/h (3 Bft) 95,74 %
19.01.2026 09:24 0,8 °C 0,6 °C -2,2 °C 95 % 1019,7 hPa 0,0 l/m² 0 min 0 min 39 W/m² 6,4 km/h (2 Bft) 97,87 %
19.01.2026 09:26 0,8 °C 0,6 °C -2,2 °C 95 % 1019,7 hPa 0,0 l/m² 0 min 0 min 40 W/m² 6,4 km/h (2 Bft) 95,74 %
19.01.2026 09:28 0,8 °C 0,6 °C -2,2 °C 95 % 1019,7 hPa 0,0 l/m² 0 min 0 min 41 W/m² 6,4 km/h (2 Bft) 97,83 %
19.01.2026 09:30 0,9 °C 1,1 °C -2,2 °C 95 % 1019,7 hPa 0,0 l/m² 0 min 0 min 42 W/m² 3,2 km/h (1 Bft) 96,30 %
19.01.2026 09:32 0,9 °C 1,1 °C -2,2 °C 95 % 1019,7 hPa 0,0 l/m² 0 min 0 min 42 W/m² 6,4 km/h (2 Bft) 97,30 %
19.01.2026 09:34 0,9 °C 1,1 °C -2,2 °C 95 % 1019,6 hPa 0,0 l/m² 0 min 0 min 40 W/m² 12,9 km/h (3 Bft) 97,96 %
19.01.2026 09:36 1,0 °C 1,1 °C -2,2 °C 95 % 1019,6 hPa 0,0 l/m² 0 min 0 min 42 W/m² 6,4 km/h (2 Bft) 97,92 %
19.01.2026 09:38 1,0 °C 1,1 °C -2,2 °C 95 % 1019,6 hPa 0,0 l/m² 0 min 0 min 42 W/m² 16,1 km/h (3 Bft) 95,74 %
19.01.2026 09:40 1,1 °C 1,1 °C -2,2 °C 95 % 1019,7 hPa 0,0 l/m² 0 min 0 min 42 W/m² 6,4 km/h (2 Bft) 98,08 %
19.01.2026 09:42 1,1 °C 1,1 °C -2,2 °C 95 % 1019,6 hPa 0,0 l/m² 0 min 0 min 44 W/m² 12,9 km/h (3 Bft) 97,37 %
19.01.2026 09:44 1,1 °C 1,1 °C -2,2 °C 95 % 1019,6 hPa 0,0 l/m² 0 min 0 min 44 W/m² 16,1 km/h (3 Bft) 98,00 %
19.01.2026 09:46 1,1 °C 1,1 °C -2,2 °C 95 % 1019,7 hPa 0,0 l/m² 0 min 0 min 46 W/m² 9,7 km/h (2 Bft) 97,87 %
19.01.2026 09:48 1,2 °C 1,1 °C -2,2 °C 95 % 1019,6 hPa 0,0 l/m² 0 min 0 min 46 W/m² 12,9 km/h (3 Bft) 94,44 %
19.01.2026 09:50 1,2 °C 1,1 °C -2,2 °C 95 % 1019,7 hPa 0,0 l/m² 0 min 0 min 46 W/m² 12,9 km/h (3 Bft) 100,00 %
19.01.2026 09:52 1,2 °C 1,1 °C -2,2 °C 95 % 1019,7 hPa 0,0 l/m² 0 min 0 min 47 W/m² 6,4 km/h (2 Bft) 95,83 %
19.01.2026 09:54 1,2 °C 1,1 °C -2,2 °C 95 % 1019,7 hPa 0,0 l/m² 0 min 0 min 47 W/m² 6,4 km/h (2 Bft) 97,87 %
19.01.2026 09:56 1,3 °C 1,1 °C -1,7 °C 95 % 1019,7 hPa 0,0 l/m² 0 min 0 min 50 W/m² 6,4 km/h (2 Bft) 97,96 %
19.01.2026 09:58 1,3 °C 1,1 °C -1,7 °C 95 % 1019,7 hPa 0,0 l/m² 0 min 0 min 51 W/m² 3,2 km/h (1 Bft) 100,00 %
19.01.2026 10:00 1,3 °C 1,7 °C -1,7 °C 95 % 1019,7 hPa 0,0 l/m² 0 min 0 min 54 W/m² 12,9 km/h (3 Bft) 98,11 %
19.01.2026 10:02 1,3 °C 1,7 °C -1,7 °C 95 % 1019,8 hPa 0,0 l/m² 0 min 0 min 57 W/m² 12,9 km/h (3 Bft) 100,00 %
19.01.2026 10:04 1,4 °C 1,7 °C -1,7 °C 95 % 1019,7 hPa 0,0 l/m² 0 min 0 min 60 W/m² 6,4 km/h (2 Bft) 100,00 %
19.01.2026 10:08 1,4 °C 1,7 °C -1,7 °C 95 % 1019,8 hPa 0,0 l/m² 0 min 0 min 64 W/m² 12,9 km/h (3 Bft) 98,88 %
19.01.2026 10:10 1,5 °C 1,7 °C -1,7 °C 95 % 1019,8 hPa 0,0 l/m² 0 min 0 min 69 W/m² 9,7 km/h (2 Bft) 98,00 %
19.01.2026 10:12 1,5 °C 1,7 °C -1,7 °C 95 % 1019,8 hPa 0,0 l/m² 0 min 0 min 70 W/m² 12,9 km/h (3 Bft) 100,00 %
19.01.2026 10:14 1,6 °C 1,7 °C -1,7 °C 95 % 1019,7 hPa 0,0 l/m² 0 min 0 min 72 W/m² 6,4 km/h (2 Bft) 100,00 %
19.01.2026 10:16 1,6 °C 1,7 °C -1,7 °C 95 % 1019,8 hPa 0,0 l/m² 0 min 0 min 72 W/m² 6,4 km/h (2 Bft) 100,00 %
19.01.2026 10:18 1,6 °C 1,7 °C -1,7 °C 95 % 1019,8 hPa 0,0 l/m² 0 min 0 min 74 W/m² 9,7 km/h (2 Bft) 100,00 %
19.01.2026 10:20 1,6 °C 1,7 °C -1,7 °C 95 % 1019,8 hPa 0,0 l/m² 0 min 0 min 72 W/m² 16,1 km/h (3 Bft) 100,00 %
19.01.2026 10:22 1,6 °C 2,2 °C -1,7 °C 95 % 1019,8 hPa 0,0 l/m² 0 min 0 min 76 W/m² 6,4 km/h (2 Bft) 100,00 %
19.01.2026 10:24 1,7 °C 2,2 °C -1,7 °C 95 % 1019,8 hPa 0,0 l/m² 0 min 0 min 77 W/m² 19,3 km/h (3 Bft) 100,00 %
19.01.2026 10:26 1,7 °C 2,2 °C -1,7 °C 95 % 1019,8 hPa 0,0 l/m² 0 min 0 min 84 W/m² 12,9 km/h (3 Bft) 100,00 %
19.01.2026 10:28 1,7 °C 2,2 °C -1,7 °C 95 % 1019,8 hPa 0,0 l/m² 0 min 0 min 87 W/m² 16,1 km/h (3 Bft) 100,00 %
19.01.2026 10:30 1,8 °C 2,2 °C -1,7 °C 95 % 1019,8 hPa 0,0 l/m² 0 min 0 min 83 W/m² 16,1 km/h (3 Bft) 100,00 %
19.01.2026 10:32 1,8 °C 2,2 °C -1,7 °C 95 % 1019,8 hPa 0,0 l/m² 0 min 0 min 94 W/m² 6,4 km/h (2 Bft) 100,00 %
19.01.2026 10:34 1,8 °C 2,2 °C -1,1 °C 95 % 1019,8 hPa 0,0 l/m² 0 min 0 min 118 W/m² 9,7 km/h (2 Bft) 97,92 %
19.01.2026 10:36 1,9 °C 2,2 °C -1,1 °C 95 % 1019,8 hPa 0,0 l/m² 2 min 0 min 132 W/m² 9,7 km/h (2 Bft) 97,78 %
19.01.2026 10:38 1,9 °C 2,2 °C -1,1 °C 95 % 1019,9 hPa 0,0 l/m² 0 min 0 min 128 W/m² 12,9 km/h (3 Bft) 97,83 %
19.01.2026 10:40 2,0 °C 2,2 °C -1,1 °C 95 % 1019,8 hPa 0,0 l/m² 0 min 0 min 122 W/m² 12,9 km/h (3 Bft) 96,00 %
19.01.2026 10:42 2,1 °C 2,2 °C -1,1 °C 95 % 1019,9 hPa 0,0 l/m² 0 min 0 min 113 W/m² 22,5 km/h (4 Bft) 97,83 %
19.01.2026 10:44 2,1 °C 2,8 °C -1,1 °C 95 % 1019,9 hPa 0,0 l/m² 0 min 0 min 105 W/m² 9,7 km/h (2 Bft) 97,83 %
19.01.2026 10:46 2,1 °C 2,8 °C -1,1 °C 95 % 1019,8 hPa 0,0 l/m² 0 min 0 min 108 W/m² 12,9 km/h (3 Bft) 95,56 %
19.01.2026 10:48 2,2 °C 2,8 °C -1,1 °C 95 % 1019,8 hPa 0,0 l/m² 0 min 0 min 136 W/m² 16,1 km/h (3 Bft) 97,78 %
19.01.2026 10:50 2,2 °C 2,8 °C -1,1 °C 94 % 1019,8 hPa 0,0 l/m² 2 min 0 min 154 W/m² 12,9 km/h (3 Bft) 97,87 %
19.01.2026 10:52 2,2 °C 2,8 °C -1,1 °C 95 % 1019,8 hPa 0,0 l/m² 2 min 0 min 163 W/m² 16,1 km/h (3 Bft) 98,08 %
19.01.2026 10:54 2,3 °C 2,8 °C -1,1 °C 95 % 1019,8 hPa 0,0 l/m² 2 min 0 min 173 W/m² 16,1 km/h (3 Bft) 95,74 %
19.01.2026 10:56 2,3 °C 2,8 °C -1,1 °C 94 % 1019,9 hPa 0,0 l/m² 2 min 0 min 166 W/m² 9,7 km/h (2 Bft) 97,87 %
19.01.2026 10:58 2,4 °C 2,8 °C -1,1 °C 94 % 1019,9 hPa 0,0 l/m² 2 min 0 min 169 W/m² 6,4 km/h (2 Bft) 89,36 %
19.01.2026 11:00 2,4 °C 3,3 °C -1,1 °C 94 % 1019,9 hPa 0,0 l/m² 2 min 0 min 168 W/m² 16,1 km/h (3 Bft) 97,83 %
19.01.2026 11:02 2,5 °C 2,8 °C -1,1 °C 94 % 1019,9 hPa 0,0 l/m² 2 min 0 min 151 W/m² 19,3 km/h (3 Bft) 97,78 %
19.01.2026 11:04 2,6 °C 3,3 °C -1,1 °C 94 % 1019,9 hPa 0,0 l/m² 0 min 0 min 131 W/m² 12,9 km/h (3 Bft) 97,44 %
19.01.2026 11:08 2,6 °C 3,3 °C -1,1 °C 94 % 1019,9 hPa 0,0 l/m² 4 min 0 min 178 W/m² 19,3 km/h (3 Bft) 96,23 %
19.01.2026 11:10 2,7 °C 3,3 °C -1,1 °C 94 % 1019,9 hPa 0,0 l/m² 0 min 0 min 138 W/m² 19,3 km/h (3 Bft) 100,00 %
19.01.2026 11:12 2,7 °C 3,3 °C -1,1 °C 94 % 1020,0 hPa 0,0 l/m² 2 min 0 min 176 W/m² 9,7 km/h (2 Bft) 100,00 %
19.01.2026 11:14 2,7 °C 3,9 °C -1,1 °C 94 % 1020,0 hPa 0,0 l/m² 2 min 0 min 211 W/m² 12,9 km/h (3 Bft) 100,00 %
19.01.2026 11:16 2,8 °C 4,4 °C -1,1 °C 94 % 1020,0 hPa 0,0 l/m² 2 min 0 min 219 W/m² 12,9 km/h (3 Bft) 95,45 %
19.01.2026 11:18 2,8 °C 5,6 °C -0,6 °C 93 % 1020,0 hPa 0,0 l/m² 2 min 0 min 237 W/m² 12,9 km/h (3 Bft) 100,00 %
19.01.2026 11:20 2,9 °C 6,7 °C -0,6 °C 93 % 1019,9 hPa 0,0 l/m² 2 min 0 min 244 W/m² 12,9 km/h (3 Bft) 100,00 %
19.01.2026 11:22 3,0 °C 7,2 °C -0,6 °C 93 % 1019,9 hPa 0,0 l/m² 2 min 0 min 246 W/m² 12,9 km/h (3 Bft) 97,83 %
19.01.2026 11:24 3,1 °C 7,8 °C -0,6 °C 93 % 1020,0 hPa 0,0 l/m² 2 min 0 min 249 W/m² 19,3 km/h (3 Bft) 100,00 %
19.01.2026 11:26 3,1 °C 6,1 °C -0,6 °C 93 % 1020,0 hPa 0,0 l/m² 0 min 0 min 147 W/m² 22,5 km/h (4 Bft) 95,56 %
19.01.2026 11:28 3,2 °C 5,0 °C -0,6 °C 93 % 1020,0 hPa 0,0 l/m² 0 min 0 min 113 W/m² 16,1 km/h (3 Bft) 97,44 %
19.01.2026 11:30 3,2 °C 4,4 °C -0,6 °C 93 % 1020,0 hPa 0,0 l/m² 0 min 0 min 156 W/m² 19,3 km/h (3 Bft) 100,00 %
19.01.2026 11:32 3,2 °C 5,6 °C -0,6 °C 92 % 1019,9 hPa 0,0 l/m² 2 min 0 min 227 W/m² 12,9 km/h (3 Bft) 100,00 %
19.01.2026 11:34 3,2 °C 5,0 °C -0,6 °C 92 % 1019,9 hPa 0,0 l/m² 0 min 0 min 146 W/m² 19,3 km/h (3 Bft) 97,87 %
19.01.2026 11:36 3,2 °C 5,0 °C -0,6 °C 92 % 1019,9 hPa 0,0 l/m² 0 min 0 min 113 W/m² 16,1 km/h (3 Bft) 97,83 %
19.01.2026 11:38 3,2 °C 4,4 °C -0,6 °C 92 % 1019,9 hPa 0,0 l/m² 0 min 0 min 118 W/m² 16,1 km/h (3 Bft) 97,83 %
19.01.2026 11:40 3,2 °C 5,0 °C -0,6 °C 92 % 1019,9 hPa 0,0 l/m² 2 min 0 min 181 W/m² 12,9 km/h (3 Bft) 100,00 %
19.01.2026 11:42 3,2 °C 5,6 °C -0,6 °C 92 % 1020,0 hPa 0,0 l/m² 2 min 0 min 190 W/m² 16,1 km/h (3 Bft) 95,92 %
19.01.2026 11:44 3,2 °C 6,1 °C -0,6 °C 91 % 1019,9 hPa 0,0 l/m² 2 min 0 min 243 W/m² 19,3 km/h (3 Bft) 93,33 %
19.01.2026 11:46 3,3 °C 7,2 °C -0,6 °C 91 % 1019,9 hPa 0,0 l/m² 2 min 0 min 221 W/m² 16,1 km/h (3 Bft) 95,74 %
19.01.2026 11:48 3,3 °C 7,2 °C -0,6 °C 91 % 1019,9 hPa 0,0 l/m² 0 min 0 min 166 W/m² 12,9 km/h (3 Bft) 97,50 %
19.01.2026 11:50 3,3 °C 7,2 °C -0,6 °C 91 % 1019,8 hPa 0,0 l/m² 2 min 0 min 191 W/m² 12,9 km/h (3 Bft) 95,65 %
19.01.2026 11:52 3,4 °C 7,2 °C -0,6 °C 91 % 1019,8 hPa 0,0 l/m² 0 min 0 min 160 W/m² 9,7 km/h (2 Bft) 95,74 %
19.01.2026 11:54 3,4 °C 6,1 °C -0,6 °C 91 % 1019,8 hPa 0,0 l/m² 2 min 0 min 189 W/m² 16,1 km/h (3 Bft) 93,62 %
19.01.2026 11:56 3,5 °C 6,7 °C -0,6 °C 91 % 1019,8 hPa 0,0 l/m² 2 min 0 min 263 W/m² 16,1 km/h (3 Bft) 97,87 %
19.01.2026 11:58 3,6 °C 7,2 °C 0,0 °C 91 % 1019,8 hPa 0,0 l/m² 0 min 0 min 154 W/m² 19,3 km/h (3 Bft) 94,83 %
19.01.2026 12:00 3,6 °C 6,7 °C 0,0 °C 91 % 1019,8 hPa 0,0 l/m² 0 min 0 min 108 W/m² 12,9 km/h (3 Bft) 95,56 %
19.01.2026 12:02 3,6 °C 6,7 °C 0,0 °C 90 % 1019,9 hPa 0,0 l/m² 0 min 0 min 104 W/m² 16,1 km/h (3 Bft) 95,56 %
19.01.2026 12:04 3,7 °C 6,7 °C 0,0 °C 90 % 1020,0 hPa 0,0 l/m² 0 min 0 min 98 W/m² 6,4 km/h (2 Bft) 100,00 %
19.01.2026 12:08 3,7 °C 5,0 °C 0,0 °C 90 % 1019,9 hPa 0,0 l/m² 0 min 0 min 121 W/m² 25,7 km/h (4 Bft) 94,17 %
19.01.2026 12:10 3,7 °C 4,4 °C 0,0 °C 90 % 1019,9 hPa 0,0 l/m² 0 min 0 min 93 W/m² 19,3 km/h (3 Bft) 95,56 %
19.01.2026 12:12 3,7 °C 3,9 °C -0,6 °C 90 % 1019,9 hPa 0,0 l/m² 0 min 0 min 77 W/m² 16,1 km/h (3 Bft) 96,00 %
19.01.2026 12:16 3,7 °C 3,9 °C -0,6 °C 89 % 1020,0 hPa 0,0 l/m² 0 min 0 min 88 W/m² 19,3 km/h (3 Bft) 95,60 %
19.01.2026 12:18 3,6 °C 3,9 °C -0,6 °C 89 % 1019,9 hPa 0,0 l/m² 0 min 0 min 106 W/m² 16,1 km/h (3 Bft) 94,87 %
19.01.2026 12:20 3,6 °C 3,9 °C -0,6 °C 89 % 1020,0 hPa 0,0 l/m² 0 min 0 min 89 W/m² 16,1 km/h (3 Bft) 95,74 %
19.01.2026 12:22 3,6 °C 3,9 °C -0,6 °C 89 % 1020,0 hPa 0,0 l/m² 0 min 0 min 87 W/m² 22,5 km/h (4 Bft) 93,62 %
19.01.2026 12:24 3,6 °C 4,4 °C -0,6 °C 89 % 1020,0 hPa 0,0 l/m² 0 min 0 min 152 W/m² 19,3 km/h (3 Bft) 92,98 %
19.01.2026 12:26 3,6 °C 5,6 °C -0,6 °C 89 % 1019,9 hPa 0,0 l/m² 2 min 0 min 211 W/m² 9,7 km/h (2 Bft) 93,33 %
19.01.2026 12:28 3,6 °C 5,6 °C -0,6 °C 89 % 1019,9 hPa 0,0 l/m² 0 min 0 min 171 W/m² 9,7 km/h (2 Bft) 97,73 %
19.01.2026 12:30 3,6 °C 5,6 °C -0,6 °C 89 % 1019,9 hPa 0,0 l/m² 2 min 0 min 178 W/m² 19,3 km/h (3 Bft) 97,56 %
19.01.2026 12:32 3,6 °C 6,1 °C -0,6 °C 89 % 1019,9 hPa 0,0 l/m² 2 min 0 min 232 W/m² 22,5 km/h (4 Bft) 97,87 %
19.01.2026 12:34 3,7 °C 5,6 °C -0,6 °C 89 % 1020,0 hPa 0,0 l/m² 0 min 0 min 158 W/m² 9,7 km/h (2 Bft) 97,87 %
19.01.2026 12:36 3,7 °C 5,0 °C -0,6 °C 89 % 1019,9 hPa 0,0 l/m² 0 min 0 min 110 W/m² 6,4 km/h (2 Bft) 93,10 %
19.01.2026 12:38 3,7 °C 4,4 °C -0,6 °C 90 % 1019,9 hPa 0,0 l/m² 0 min 0 min 93 W/m² 12,9 km/h (3 Bft) 97,78 %
19.01.2026 12:40 3,7 °C 3,9 °C -0,6 °C 89 % 1019,9 hPa 0,0 l/m² 0 min 0 min 95 W/m² 12,9 km/h (3 Bft) 97,30 %
19.01.2026 12:44 3,7 °C 3,9 °C -0,6 °C 89 % 1019,8 hPa 0,0 l/m² 0 min 0 min 114 W/m² 16,1 km/h (3 Bft) 97,85 %
19.01.2026 12:46 3,7 °C 4,4 °C -0,6 °C 89 % 1019,8 hPa 0,0 l/m² 2 min 0 min 188 W/m² 12,9 km/h (3 Bft) 96,49 %
19.01.2026 12:48 3,7 °C 6,7 °C -0,6 °C 89 % 1019,8 hPa 0,0 l/m² 2 min 0 min 306 W/m² 16,1 km/h (3 Bft) 94,59 %
19.01.2026 12:52 3,8 °C 8,9 °C 0,0 °C 90 % 1019,8 hPa 0,0 l/m² 4 min 0 min 322 W/m² 16,1 km/h (3 Bft) 97,85 %
19.01.2026 12:54 3,8 °C 9,4 °C 0,0 °C 90 % 1019,7 hPa 0,0 l/m² 2 min 0 min 346 W/m² 16,1 km/h (3 Bft) 100,00 %
19.01.2026 12:58 3,9 °C 8,9 °C 0,0 °C 90 % 1019,8 hPa 0,0 l/m² 4 min 0 min 321 W/m² 19,3 km/h (3 Bft) 98,82 %
19.01.2026 13:00 4,0 °C 8,9 °C 0,0 °C 89 % 1019,8 hPa 0,0 l/m² 2 min 0 min 274 W/m² 12,9 km/h (3 Bft) 100,00 %
19.01.2026 13:02 4,1 °C 8,3 °C 0,0 °C 89 % 1019,8 hPa 0,0 l/m² 2 min 0 min 271 W/m² 16,1 km/h (3 Bft) 100,00 %
19.01.2026 13:04 4,1 °C 7,8 °C 0,0 °C 89 % 1019,8 hPa 0,0 l/m² 2 min 0 min 248 W/m² 12,9 km/h (3 Bft) 100,00 %
19.01.2026 13:08 4,2 °C 5,6 °C 0,0 °C 89 % 1019,8 hPa 0,0 l/m² 0 min 0 min 146 W/m² 16,1 km/h (3 Bft) 97,87 %
19.01.2026 13:10 4,2 °C 5,0 °C 0,0 °C 88 % 1019,8 hPa 0,0 l/m² 0 min 0 min 139 W/m² 16,1 km/h (3 Bft) 97,30 %
19.01.2026 13:14 4,1 °C 5,0 °C 0,0 °C 88 % 1019,8 hPa 0,0 l/m² 0 min 0 min 153 W/m² 22,5 km/h (4 Bft) 97,09 %
19.01.2026 13:16 4,1 °C 5,0 °C 0,0 °C 88 % 1019,8 hPa 0,0 l/m² 2 min 0 min 182 W/m² 12,9 km/h (3 Bft) 97,37 %
19.01.2026 13:20 4,1 °C 5,6 °C 0,0 °C 88 % 1019,7 hPa 0,0 l/m² 0 min 0 min 170 W/m² 22,5 km/h (4 Bft) 96,77 %
19.01.2026 13:24 4,1 °C 5,0 °C 0,0 °C 88 % 1019,7 hPa 0,0 l/m² 0 min 0 min 152 W/m² 19,3 km/h (3 Bft) 97,09 %
19.01.2026 13:28 4,1 °C 4,4 °C 0,0 °C 88 % 1019,7 hPa 0,0 l/m² 0 min 0 min 145 W/m² 16,1 km/h (3 Bft) 97,65 %
19.01.2026 13:32 4,0 °C 3,9 °C 0,0 °C 88 % 1019,8 hPa 0,0 l/m² 0 min 0 min 128 W/m² 22,5 km/h (4 Bft) 96,81 %
19.01.2026 13:34 4,0 °C 3,9 °C 0,0 °C 88 % 1019,7 hPa 0,0 l/m² 0 min 0 min 128 W/m² 22,5 km/h (4 Bft) 96,43 %
19.01.2026 13:36 3,9 °C 3,9 °C 0,0 °C 88 % 1019,7 hPa 0,0 l/m² 0 min 0 min 128 W/m² 12,9 km/h (3 Bft) 97,30 %
19.01.2026 13:40 3,9 °C 3,9 °C 0,0 °C 88 % 1019,8 hPa 0,0 l/m² 0 min 0 min 130 W/m² 19,3 km/h (3 Bft) 97,87 %
19.01.2026 13:44 3,9 °C 4,4 °C 0,0 °C 88 % 1019,8 hPa 0,0 l/m² 0 min 0 min 123 W/m² 12,9 km/h (3 Bft) 97,87 %
19.01.2026 13:48 3,9 °C 4,4 °C 0,0 °C 88 % 1019,7 hPa 0,0 l/m² 0 min 0 min 125 W/m² 16,1 km/h (3 Bft) 97,85 %
19.01.2026 13:52 3,9 °C 5,0 °C 0,0 °C 88 % 1019,8 hPa 0,0 l/m² 4 min 0 min 172 W/m² 16,1 km/h (3 Bft) 97,85 %
19.01.2026 13:56 3,9 °C 5,6 °C 0,0 °C 88 % 1019,7 hPa 0,0 l/m² 4 min 0 min 199 W/m² 16,1 km/h (3 Bft) 100,00 %
19.01.2026 13:58 4,0 °C 5,6 °C 0,0 °C 88 % 1019,8 hPa 0,0 l/m² 2 min 0 min 211 W/m² 12,9 km/h (3 Bft) 100,00 %
19.01.2026 14:00 4,0 °C 5,6 °C 0,0 °C 88 % 1019,8 hPa 0,0 l/m² 2 min 0 min 229 W/m² 16,1 km/h (3 Bft) 100,00 %
19.01.2026 14:02 4,0 °C 6,1 °C 0,0 °C 88 % 1019,8 hPa 0,0 l/m² 2 min 0 min 237 W/m² 19,3 km/h (3 Bft) 100,00 %
19.01.2026 14:04 4,1 °C 6,7 °C 0,0 °C 88 % 1019,7 hPa 0,0 l/m² 2 min 0 min 236 W/m² 9,7 km/h (2 Bft) 98,04 %
19.01.2026 14:08 4,1 °C 6,7 °C 0,0 °C 88 % 1019,7 hPa 0,0 l/m² 4 min 0 min 253 W/m² 19,3 km/h (3 Bft) 97,87 %
19.01.2026 14:10 4,2 °C 7,2 °C 0,0 °C 88 % 1019,7 hPa 0,0 l/m² 2 min 0 min 247 W/m² 16,1 km/h (3 Bft) 98,11 %
19.01.2026 14:12 4,2 °C 7,2 °C 0,0 °C 88 % 1019,7 hPa 0,0 l/m² 2 min 0 min 243 W/m² 12,9 km/h (3 Bft) 100,00 %
19.01.2026 14:14 4,3 °C 6,7 °C 0,0 °C 88 % 1019,7 hPa 0,0 l/m² 2 min 0 min 235 W/m² 19,3 km/h (3 Bft) 97,22 %
19.01.2026 14:18 4,3 °C 6,1 °C 0,0 °C 88 % 1019,7 hPa 0,0 l/m² 4 min 0 min 236 W/m² 22,5 km/h (4 Bft) 96,81 %
19.01.2026 14:20 4,3 °C 6,1 °C 0,0 °C 88 % 1019,7 hPa 0,0 l/m² 2 min 0 min 203 W/m² 16,1 km/h (3 Bft) 96,43 %
19.01.2026 14:22 4,4 °C 6,7 °C 0,0 °C 88 % 1019,8 hPa 0,0 l/m² 2 min 0 min 220 W/m² 9,7 km/h (2 Bft) 100,00 %
19.01.2026 14:24 4,4 °C 6,1 °C 0,0 °C 88 % 1019,7 hPa 0,0 l/m² 2 min 0 min 178 W/m² 16,1 km/h (3 Bft) 98,31 %
19.01.2026 14:26 4,4 °C 6,1 °C 0,0 °C 87 % 1019,7 hPa 0,0 l/m² 0 min 0 min 142 W/m² 9,7 km/h (2 Bft) 97,78 %
19.01.2026 14:28 4,4 °C 6,1 °C 0,0 °C 87 % 1019,7 hPa 0,0 l/m² 2 min 0 min 176 W/m² 12,9 km/h (3 Bft) 97,30 %
19.01.2026 14:30 4,4 °C 6,1 °C 0,0 °C 87 % 1019,7 hPa 0,0 l/m² 2 min 0 min 182 W/m² 12,9 km/h (3 Bft) 98,18 %
19.01.2026 14:32 4,4 °C 5,6 °C 0,0 °C 87 % 1019,7 hPa 0,0 l/m² 2 min 0 min 168 W/m² 19,3 km/h (3 Bft) 97,44 %
19.01.2026 14:34 4,4 °C 5,6 °C 0,0 °C 87 % 1019,7 hPa 0,0 l/m² 2 min 0 min 172 W/m² 19,3 km/h (3 Bft) 95,92 %
19.01.2026 14:36 4,4 °C 6,1 °C 0,0 °C 87 % 1019,7 hPa 0,0 l/m² 2 min 0 min 183 W/m² 12,9 km/h (3 Bft) 97,87 %
19.01.2026 14:38 4,4 °C 6,1 °C 0,0 °C 87 % 1019,7 hPa 0,0 l/m² 2 min 0 min 180 W/m² 16,1 km/h (3 Bft) 98,15 %
19.01.2026 14:40 4,4 °C 6,7 °C 0,0 °C 87 % 1019,7 hPa 0,0 l/m² 2 min 0 min 183 W/m² 16,1 km/h (3 Bft) 97,50 %
19.01.2026 14:44 4,4 °C 6,1 °C 0,0 °C 87 % 1019,7 hPa 0,0 l/m² 4 min 0 min 137 W/m² 16,1 km/h (3 Bft) 97,85 %
19.01.2026 14:46 4,4 °C 5,6 °C 0,0 °C 87 % 1019,7 hPa 0,0 l/m² 0 min 0 min 105 W/m² 12,9 km/h (3 Bft) 97,87 %
19.01.2026 14:48 4,4 °C 5,0 °C 0,0 °C 87 % 1019,8 hPa 0,0 l/m² 0 min 0 min 114 W/m² 12,9 km/h (3 Bft) 97,87 %
19.01.2026 14:50 4,4 °C 5,0 °C 0,0 °C 87 % 1019,8 hPa 0,0 l/m² 0 min 0 min 127 W/m² 12,9 km/h (3 Bft) 96,30 %
19.01.2026 14:52 4,4 °C 5,0 °C 0,0 °C 87 % 1019,7 hPa 0,0 l/m² 0 min 0 min 102 W/m² 9,7 km/h (2 Bft) 97,50 %
19.01.2026 14:54 4,4 °C 4,4 °C 0,0 °C 86 % 1019,8 hPa 0,0 l/m² 0 min 0 min 82 W/m² 19,3 km/h (3 Bft) 97,83 %
19.01.2026 14:58 4,2 °C 3,9 °C -0,6 °C 86 % 1019,8 hPa 0,0 l/m² 0 min 0 min 76 W/m² 19,3 km/h (3 Bft) 96,77 %
19.01.2026 15:00 4,2 °C 3,9 °C -0,6 °C 86 % 1019,8 hPa 0,0 l/m² 0 min 0 min 84 W/m² 12,9 km/h (3 Bft) 96,08 %
19.01.2026 15:04 4,1 °C 4,4 °C -0,6 °C 87 % 1019,9 hPa 0,0 l/m² 0 min 0 min 105 W/m² 16,1 km/h (3 Bft) 96,74 %
19.01.2026 15:07 4,1 °C 5,0 °C -0,6 °C 87 % 1019,9 hPa 0,0 l/m² 3 min 0 min 133 W/m² 12,9 km/h (3 Bft) 97,50 %
19.01.2026 15:08 4,1 °C 5,0 °C -0,6 °C 87 % 1019,9 hPa 0,0 l/m² 1 min 0 min 120 W/m² 12,9 km/h (3 Bft) 96,99 %
19.01.2026 15:10 4,1 °C 5,0 °C -0,6 °C 87 % 1019,9 hPa 0,0 l/m² 2 min 0 min 126 W/m² 16,1 km/h (3 Bft) 99,12 %
19.01.2026 15:12 4,1 °C 5,0 °C -0,6 °C 87 % 1019,9 hPa 0,0 l/m² 0 min 0 min 103 W/m² 12,9 km/h (3 Bft) 100,00 %
19.01.2026 15:14 4,1 °C 4,4 °C -0,6 °C 87 % 1019,9 hPa 0,0 l/m² 0 min 0 min 103 W/m² 6,4 km/h (2 Bft) 97,33 %
19.01.2026 15:16 4,1 °C 4,4 °C -0,6 °C 87 % 1019,8 hPa 0,0 l/m² 0 min 0 min 109 W/m² 3,2 km/h (1 Bft) 92,86 %
19.01.2026 15:18 4,1 °C 3,9 °C -0,6 °C 87 % 1019,8 hPa 0,0 l/m² 0 min 0 min 95 W/m² 9,7 km/h (2 Bft) 96,15 %
19.01.2026 15:22 4,1 °C 3,9 °C -0,6 °C 87 % 1019,8 hPa 0,0 l/m² 0 min 0 min 89 W/m² 16,1 km/h (3 Bft) 97,80 %
19.01.2026 15:26 4,0 °C 3,3 °C -0,6 °C 87 % 1019,8 hPa 0,0 l/m² 0 min 0 min 99 W/m² 16,1 km/h (3 Bft) 96,91 %
19.01.2026 15:28 4,0 °C 3,3 °C -0,6 °C 87 % 1019,7 hPa 0,0 l/m² 2 min 0 min 100 W/m² 19,3 km/h (3 Bft) 95,56 %
19.01.2026 15:30 3,9 °C 3,3 °C -0,6 °C 87 % 1019,7 hPa 0,0 l/m² 2 min 0 min 100 W/m² 6,4 km/h (2 Bft) 94,59 %
19.01.2026 15:34 3,9 °C 3,3 °C -0,6 °C 88 % 1019,8 hPa 0,0 l/m² 0 min 0 min 66 W/m² 16,1 km/h (3 Bft) 77,55 %
19.01.2026 15:36 3,9 °C 3,3 °C -0,6 °C 88 % 1019,8 hPa 0,0 l/m² 0 min 0 min 49 W/m² 6,4 km/h (2 Bft) 97,67 %
19.01.2026 15:38 3,8 °C 3,3 °C -0,6 °C 87 % 1019,8 hPa 0,0 l/m² 0 min 0 min 46 W/m² 16,1 km/h (3 Bft) 100,00 %
19.01.2026 15:40 3,8 °C 3,3 °C -0,6 °C 87 % 1019,8 hPa 0,0 l/m² 0 min 0 min 47 W/m² 12,9 km/h (3 Bft) 97,78 %
19.01.2026 15:42 3,8 °C 3,3 °C -0,6 °C 88 % 1019,8 hPa 0,0 l/m² 0 min 0 min 47 W/m² 12,9 km/h (3 Bft) 100,00 %
19.01.2026 15:44 3,8 °C 3,3 °C -0,6 °C 88 % 1019,8 hPa 0,0 l/m² 0 min 0 min 46 W/m² 16,1 km/h (3 Bft) 96,55 %
19.01.2026 15:46 3,7 °C 3,3 °C -0,6 °C 88 % 1019,8 hPa 0,0 l/m² 0 min 0 min 43 W/m² 12,9 km/h (3 Bft) 97,14 %
19.01.2026 15:48 3,7 °C 3,3 °C -0,6 °C 88 % 1019,9 hPa 0,0 l/m² 0 min 0 min 38 W/m² 12,9 km/h (3 Bft) 98,31 %
19.01.2026 15:50 3,7 °C 2,8 °C -0,6 °C 88 % 1019,9 hPa 0,0 l/m² 0 min 0 min 34 W/m² 12,9 km/h (3 Bft) 97,62 %
19.01.2026 15:52 3,7 °C 2,8 °C -0,6 °C 88 % 1019,9 hPa 0,0 l/m² 0 min 0 min 32 W/m² 6,4 km/h (2 Bft) 96,15 %
19.01.2026 15:54 3,6 °C 2,8 °C -0,6 °C 88 % 1019,9 hPa 0,0 l/m² 0 min 0 min 30 W/m² 6,4 km/h (2 Bft) 97,73 %
19.01.2026 15:56 3,6 °C 2,8 °C -0,6 °C 88 % 1019,9 hPa 0,0 l/m² 0 min 0 min 28 W/m² 12,9 km/h (3 Bft) 100,00 %
19.01.2026 15:58 3,6 °C 2,8 °C -0,6 °C 88 % 1019,9 hPa 0,0 l/m² 0 min 0 min 26 W/m² 9,7 km/h (2 Bft) 98,28 %
19.01.2026 16:00 3,6 °C 2,8 °C -1,1 °C 88 % 1019,9 hPa 0,0 l/m² 0 min 0 min 26 W/m² 16,1 km/h (3 Bft) 97,67 %
19.01.2026 16:02 3,5 °C 2,8 °C -1,1 °C 88 % 1019,9 hPa 0,0 l/m² 0 min 0 min 25 W/m² 6,4 km/h (2 Bft) 98,04 %
19.01.2026 16:04 3,5 °C 2,8 °C -1,1 °C 88 % 1019,9 hPa 0,0 l/m² 0 min 0 min 25 W/m² 12,9 km/h (3 Bft) 97,73 %
19.01.2026 16:06 3,4 °C 2,8 °C -1,1 °C 88 % 1019,9 hPa 0,0 l/m² 0 min 0 min 25 W/m² 6,4 km/h (2 Bft) 97,96 %
19.01.2026 16:08 3,4 °C 2,8 °C -1,1 °C 88 % 1019,8 hPa 0,0 l/m² 0 min 0 min 25 W/m² 16,1 km/h (3 Bft) 97,87 %
19.01.2026 16:10 3,4 °C 2,8 °C -1,1 °C 89 % 1019,9 hPa 0,0 l/m² 0 min 0 min 24 W/m² 6,4 km/h (2 Bft) 97,62 %
19.01.2026 16:12 3,3 °C 2,8 °C -1,1 °C 88 % 1019,9 hPa 0,0 l/m² 0 min 0 min 23 W/m² 6,4 km/h (2 Bft) 94,23 %
19.01.2026 16:14 3,3 °C 2,2 °C -1,1 °C 89 % 1019,9 hPa 0,0 l/m² 0 min 0 min 23 W/m² 12,9 km/h (3 Bft) 97,73 %
19.01.2026 16:16 3,3 °C 2,2 °C -1,1 °C 89 % 1019,9 hPa 0,0 l/m² 0 min 0 min 23 W/m² 6,4 km/h (2 Bft) 97,78 %
19.01.2026 16:18 3,2 °C 2,2 °C -1,1 °C 89 % 1019,9 hPa 0,0 l/m² 0 min 0 min 21 W/m² 12,9 km/h (3 Bft) 98,04 %
19.01.2026 16:20 3,2 °C 2,2 °C -1,1 °C 89 % 1019,9 hPa 0,0 l/m² 0 min 0 min 21 W/m² 6,4 km/h (2 Bft) 95,74 %
19.01.2026 16:22 3,2 °C 2,2 °C -1,1 °C 89 % 1019,8 hPa 0,0 l/m² 0 min 0 min 21 W/m² 12,9 km/h (3 Bft) 95,35 %
19.01.2026 16:24 3,1 °C 2,2 °C -1,1 °C 89 % 1019,8 hPa 0,0 l/m² 0 min 0 min 19 W/m² 12,9 km/h (3 Bft) 98,04 %
19.01.2026 16:26 3,1 °C 2,2 °C -1,1 °C 89 % 1019,8 hPa 0,0 l/m² 0 min 0 min 19 W/m² 16,1 km/h (3 Bft) 95,74 %
19.01.2026 16:28 3,1 °C 2,2 °C -1,1 °C 89 % 1019,8 hPa 0,0 l/m² 0 min 0 min 18 W/m² 16,1 km/h (3 Bft) 97,67 %
19.01.2026 16:30 3,1 °C 2,2 °C -1,1 °C 89 % 1019,8 hPa 0,0 l/m² 0 min 0 min 17 W/m² 16,1 km/h (3 Bft) 96,00 %
19.01.2026 16:32 3,0 °C 2,2 °C -1,1 °C 89 % 1019,8 hPa 0,0 l/m² 0 min 0 min 15 W/m² 12,9 km/h (3 Bft) 97,87 %
19.01.2026 16:34 3,0 °C 2,2 °C -1,1 °C 89 % 1019,8 hPa 0,0 l/m² 0 min 0 min 14 W/m² 19,3 km/h (3 Bft) 95,65 %
19.01.2026 16:36 2,9 °C 2,2 °C -1,1 °C 90 % 1019,8 hPa 0,0 l/m² 0 min 0 min 12 W/m² 12,9 km/h (3 Bft) 97,22 %
19.01.2026 16:38 2,9 °C 2,2 °C -1,1 °C 89 % 1019,9 hPa 0,0 l/m² 0 min 0 min 12 W/m² 12,9 km/h (3 Bft) 96,61 %
19.01.2026 16:40 2,9 °C 2,2 °C -1,1 °C 89 % 1019,9 hPa 0,0 l/m² 0 min 0 min 11 W/m² 6,4 km/h (2 Bft) 95,35 %
19.01.2026 16:42 2,9 °C 2,2 °C -1,1 °C 90 % 1019,9 hPa 0,0 l/m² 0 min 0 min 11 W/m² 9,7 km/h (2 Bft) 98,00 %
19.01.2026 16:44 2,9 °C 2,2 °C -1,1 °C 90 % 1019,9 hPa 0,0 l/m² 0 min 0 min 9 W/m² 12,9 km/h (3 Bft) 97,87 %
19.01.2026 16:46 2,8 °C 2,2 °C -1,7 °C 90 % 1019,9 hPa 0,0 l/m² 0 min 0 min 7 W/m² 12,9 km/h (3 Bft) 95,45 %
19.01.2026 16:48 2,8 °C 2,2 °C -1,7 °C 90 % 1019,9 hPa 0,0 l/m² 0 min 0 min 7 W/m² 16,1 km/h (3 Bft) 97,73 %
19.01.2026 16:50 2,8 °C 1,7 °C -1,7 °C 90 % 1020,0 hPa 0,0 l/m² 0 min 0 min 7 W/m² 16,1 km/h (3 Bft) 98,11 %
19.01.2026 16:52 2,8 °C 1,7 °C -1,7 °C 90 % 1020,0 hPa 0,0 l/m² 0 min 0 min 5 W/m² 12,9 km/h (3 Bft) 97,78 %
19.01.2026 16:54 2,7 °C 1,7 °C -1,7 °C 90 % 1020,0 hPa 0,0 l/m² 0 min 0 min 5 W/m² 12,9 km/h (3 Bft) 97,30 %
19.01.2026 16:56 2,7 °C 1,7 °C -1,7 °C 90 % 1020,0 hPa 0,0 l/m² 0 min 0 min 5 W/m² 16,1 km/h (3 Bft) 96,55 %
19.01.2026 16:58 2,7 °C 1,7 °C -1,7 °C 90 % 1020,0 hPa 0,0 l/m² 0 min 0 min 5 W/m² 12,9 km/h (3 Bft) 95,45 %
19.01.2026 17:00 2,7 °C 1,7 °C -1,7 °C 90 % 1020,0 hPa 0,0 l/m² 0 min 0 min 1 W/m² 6,4 km/h (2 Bft) 98,00 %
19.01.2026 17:02 2,6 °C 1,7 °C -1,7 °C 90 % 1020,1 hPa 0,0 l/m² 0 min 0 min 0 W/m² 12,9 km/h (3 Bft) 95,56 %
19.01.2026 17:04 2,6 °C 1,7 °C -1,7 °C 90 % 1020,1 hPa 0,0 l/m² 0 min 0 min 0 W/m² 12,9 km/h (3 Bft) 97,67 %
19.01.2026 17:06 2,6 °C 1,7 °C -1,7 °C 91 % 1020,1 hPa 0,0 l/m² 0 min 0 min 0 W/m² 12,9 km/h (3 Bft) 96,15 %
19.01.2026 17:08 2,6 °C 1,7 °C -1,7 °C 91 % 1020,1 hPa 0,0 l/m² 0 min 0 min 0 W/m² 9,7 km/h (2 Bft) 97,78 %
19.01.2026 17:10 2,6 °C 1,7 °C -1,7 °C 91 % 1020,1 hPa 0,0 l/m² 0 min 0 min 0 W/m² 12,9 km/h (3 Bft) 95,92 %
19.01.2026 17:12 2,5 °C 1,7 °C -1,7 °C 91 % 1020,1 hPa 0,0 l/m² 0 min 0 min 0 W/m² 12,9 km/h (3 Bft) 95,65 %
19.01.2026 17:14 2,5 °C 1,7 °C -1,7 °C 91 % 1020,1 hPa 0,0 l/m² 0 min 0 min 0 W/m² 12,9 km/h (3 Bft) 97,62 %
19.01.2026 17:16 2,4 °C 1,7 °C -1,7 °C 91 % 1020,1 hPa 0,0 l/m² 0 min 0 min 0 W/m² 6,4 km/h (2 Bft) 98,08 %
19.01.2026 17:18 2,4 °C 1,7 °C -1,7 °C 91 % 1020,2 hPa 0,0 l/m² 0 min 0 min 0 W/m² 6,4 km/h (2 Bft) 97,87 %
19.01.2026 17:20 2,4 °C 1,1 °C -1,7 °C 91 % 1020,2 hPa 0,0 l/m² 0 min 0 min 0 W/m² 12,9 km/h (3 Bft) 97,83 %
19.01.2026 17:22 2,3 °C 1,1 °C -1,7 °C 91 % 1020,1 hPa 0,0 l/m² 0 min 0 min 0 W/m² 16,1 km/h (3 Bft) 97,83 %
19.01.2026 17:24 2,3 °C 1,1 °C -1,7 °C 91 % 1020,1 hPa 0,0 l/m² 0 min 0 min 0 W/m² 6,4 km/h (2 Bft) 97,87 %
19.01.2026 17:26 2,3 °C 1,1 °C -1,7 °C 91 % 1020,1 hPa 0,0 l/m² 0 min 0 min 0 W/m² 12,9 km/h (3 Bft) 97,67 %
19.01.2026 17:28 2,3 °C 1,1 °C -1,7 °C 91 % 1020,2 hPa 0,0 l/m² 0 min 0 min 0 W/m² 9,7 km/h (2 Bft) 97,87 %
19.01.2026 17:30 2,3 °C 1,1 °C -1,7 °C 91 % 1020,2 hPa 0,0 l/m² 0 min 0 min 0 W/m² 12,9 km/h (3 Bft) 97,92 %
19.01.2026 17:32 2,2 °C 1,1 °C -1,7 °C 91 % 1020,1 hPa 0,0 l/m² 0 min 0 min 0 W/m² 12,9 km/h (3 Bft) 95,92 %
19.01.2026 17:34 2,2 °C 1,1 °C -2,2 °C 91 % 1020,1 hPa 0,0 l/m² 0 min 0 min 0 W/m² 9,7 km/h (2 Bft) 97,78 %
19.01.2026 17:36 2,2 °C 1,1 °C -2,2 °C 91 % 1020,1 hPa 0,0 l/m² 0 min 0 min 0 W/m² 12,9 km/h (3 Bft) 93,48 %
19.01.2026 17:38 2,2 °C 1,1 °C -2,2 °C 91 % 1020,1 hPa 0,0 l/m² 0 min 0 min 0 W/m² 12,9 km/h (3 Bft) 97,50 %
19.01.2026 17:40 2,1 °C 1,1 °C -2,2 °C 91 % 1020,1 hPa 0,0 l/m² 0 min 0 min 0 W/m² 12,9 km/h (3 Bft) 95,74 %
19.01.2026 17:42 2,1 °C 1,1 °C -2,2 °C 92 % 1020,1 hPa 0,0 l/m² 0 min 0 min 0 W/m² 19,3 km/h (3 Bft) 96,23 %
19.01.2026 17:44 2,1 °C 1,1 °C -2,2 °C 92 % 1020,1 hPa 0,0 l/m² 0 min 0 min 0 W/m² 16,1 km/h (3 Bft) 98,00 %
19.01.2026 17:46 2,1 °C 1,1 °C -2,2 °C 92 % 1020,1 hPa 0,0 l/m² 0 min 0 min 0 W/m² 16,1 km/h (3 Bft) 97,87 %
19.01.2026 17:48 2,1 °C 1,1 °C -2,2 °C 92 % 1020,1 hPa 0,0 l/m² 0 min 0 min 0 W/m² 19,3 km/h (3 Bft) 100,00 %
19.01.2026 17:50 2,1 °C 1,1 °C -2,2 °C 92 % 1020,1 hPa 0,0 l/m² 0 min 0 min 0 W/m² 9,7 km/h (2 Bft) 97,83 %
19.01.2026 17:52 2,1 °C 1,1 °C -2,2 °C 92 % 1020,1 hPa 0,0 l/m² 0 min 0 min 0 W/m² 16,1 km/h (3 Bft) 97,87 %
19.01.2026 17:54 2,0 °C 1,1 °C -2,2 °C 92 % 1020,2 hPa 0,0 l/m² 0 min 0 min 0 W/m² 16,1 km/h (3 Bft) 100,00 %
19.01.2026 17:56 2,0 °C 1,1 °C -2,2 °C 92 % 1020,2 hPa 0,0 l/m² 0 min 0 min 0 W/m² 6,4 km/h (2 Bft) 100,00 %
19.01.2026 17:58 2,0 °C 1,1 °C -2,2 °C 92 % 1020,2 hPa 0,0 l/m² 0 min 0 min 0 W/m² 6,4 km/h (2 Bft) 97,83 %
19.01.2026 18:00 2,0 °C 1,1 °C -2,2 °C 92 % 1020,2 hPa 0,0 l/m² 0 min 0 min 0 W/m² 12,9 km/h (3 Bft) 97,87 %
19.01.2026 18:02 1,9 °C 1,1 °C -2,2 °C 92 % 1020,2 hPa 0,0 l/m² 0 min 0 min 0 W/m² 12,9 km/h (3 Bft) 100,00 %
19.01.2026 18:04 1,9 °C 1,1 °C -2,2 °C 92 % 1020,1 hPa 0,0 l/m² 0 min 0 min 0 W/m² 6,4 km/h (2 Bft) 100,00 %
19.01.2026 18:07 1,9 °C 1,1 °C -2,2 °C 92 % 1020,1 hPa 0,0 l/m² 0 min 0 min 0 W/m² 16,1 km/h (3 Bft) 97,50 %
19.01.2026 18:08 1,9 °C 1,1 °C -2,2 °C 92 % 1020,1 hPa 0,0 l/m² 0 min 0 min 0 W/m² 16,1 km/h (3 Bft) 96,95 %
19.01.2026 18:12 1,8 °C 1,1 °C -2,2 °C 92 % 1020,2 hPa 0,0 l/m² 0 min 0 min 0 W/m² 6,4 km/h (2 Bft) 100,00 %
19.01.2026 18:14 1,8 °C 1,1 °C -2,2 °C 92 % 1020,3 hPa 0,0 l/m² 0 min 0 min 0 W/m² 9,7 km/h (2 Bft) 100,00 %
19.01.2026 18:16 1,8 °C 0,6 °C -2,2 °C 92 % 1020,3 hPa 0,0 l/m² 0 min 0 min 0 W/m² 16,1 km/h (3 Bft) 100,00 %
19.01.2026 18:18 1,8 °C 0,6 °C -2,2 °C 92 % 1020,3 hPa 0,0 l/m² 0 min 0 min 0 W/m² 12,9 km/h (3 Bft) 100,00 %
19.01.2026 18:20 1,7 °C 0,6 °C -2,2 °C 92 % 1020,3 hPa 0,0 l/m² 0 min 0 min 0 W/m² 16,1 km/h (3 Bft) 97,96 %
19.01.2026 18:22 1,7 °C 1,1 °C -2,2 °C 92 % 1020,3 hPa 0,0 l/m² 0 min 0 min 0 W/m² 9,7 km/h (2 Bft) 97,87 %
19.01.2026 18:24 1,7 °C 0,6 °C -2,2 °C 92 % 1020,3 hPa 0,0 l/m² 0 min 0 min 0 W/m² 12,9 km/h (3 Bft) 100,00 %
19.01.2026 18:26 1,7 °C 0,6 °C -2,2 °C 92 % 1020,3 hPa 0,0 l/m² 0 min 0 min 0 W/m² 12,9 km/h (3 Bft) 100,00 %
19.01.2026 18:28 1,7 °C 0,6 °C -2,2 °C 92 % 1020,3 hPa 0,0 l/m² 0 min 0 min 0 W/m² 12,9 km/h (3 Bft) 98,00 %
19.01.2026 18:30 1,6 °C 0,6 °C -2,2 °C 92 % 1020,3 hPa 0,0 l/m² 0 min 0 min 0 W/m² 19,3 km/h (3 Bft) 97,14 %
19.01.2026 18:32 1,6 °C 0,6 °C -2,2 °C 92 % 1020,3 hPa 0,0 l/m² 0 min 0 min 0 W/m² 12,9 km/h (3 Bft) 97,87 %
19.01.2026 18:34 1,6 °C 0,6 °C -2,2 °C 93 % 1020,3 hPa 0,0 l/m² 0 min 0 min 0 W/m² 12,9 km/h (3 Bft) 97,87 %
19.01.2026 18:36 1,6 °C 0,6 °C -2,2 °C 92 % 1020,3 hPa 0,0 l/m² 0 min 0 min 0 W/m² 6,4 km/h (2 Bft) 92,98 %
19.01.2026 18:38 1,6 °C 0,6 °C -2,2 °C 92 % 1020,3 hPa 0,0 l/m² 0 min 0 min 0 W/m² 12,9 km/h (3 Bft) 97,92 %
19.01.2026 18:40 1,6 °C 0,6 °C -2,8 °C 92 % 1020,3 hPa 0,0 l/m² 0 min 0 min 0 W/m² 12,9 km/h (3 Bft) 97,87 %
19.01.2026 18:42 1,5 °C 0,6 °C -2,8 °C 92 % 1020,3 hPa 0,0 l/m² 0 min 0 min 0 W/m² 9,7 km/h (2 Bft) 97,87 %
19.01.2026 18:44 1,5 °C 0,6 °C -2,8 °C 93 % 1020,3 hPa 0,0 l/m² 0 min 0 min 0 W/m² 12,9 km/h (3 Bft) 95,74 %
19.01.2026 18:46 1,5 °C 0,6 °C -2,8 °C 93 % 1020,3 hPa 0,0 l/m² 0 min 0 min 0 W/m² 6,4 km/h (2 Bft) 100,00 %
19.01.2026 18:48 1,4 °C 0,6 °C -2,8 °C 93 % 1020,4 hPa 0,0 l/m² 0 min 0 min 0 W/m² 16,1 km/h (3 Bft) 98,11 %
19.01.2026 18:50 1,4 °C 0,6 °C -2,8 °C 93 % 1020,4 hPa 0,0 l/m² 0 min 0 min 0 W/m² 16,1 km/h (3 Bft) 96,00 %
19.01.2026 18:52 1,4 °C 0,6 °C -2,8 °C 93 % 1020,4 hPa 0,0 l/m² 0 min 0 min 0 W/m² 9,7 km/h (2 Bft) 97,37 %
19.01.2026 18:54 1,4 °C 0,6 °C -2,8 °C 93 % 1020,3 hPa 0,0 l/m² 0 min 0 min 0 W/m² 12,9 km/h (3 Bft) 92,45 %
19.01.2026 18:56 1,4 °C 0,6 °C -2,8 °C 93 % 1020,4 hPa 0,0 l/m² 0 min 0 min 0 W/m² 16,1 km/h (3 Bft) 95,92 %
19.01.2026 18:58 1,3 °C 0,6 °C -2,8 °C 93 % 1020,4 hPa 0,0 l/m² 0 min 0 min 0 W/m² 16,1 km/h (3 Bft) 37,50 %
19.01.2026 19:00 1,3 °C 0,6 °C -2,8 °C 93 % 1020,4 hPa 0,0 l/m² 0 min 0 min 0 W/m² 16,1 km/h (3 Bft) 91,67 %
19.01.2026 19:02 1,3 °C 0,6 °C -2,8 °C 93 % 1020,4 hPa 0,0 l/m² 0 min 0 min 0 W/m² 12,9 km/h (3 Bft) 96,23 %
19.01.2026 19:04 1,3 °C 0,6 °C -2,8 °C 93 % 1020,4 hPa 0,0 l/m² 0 min 0 min 0 W/m² 12,9 km/h (3 Bft) 95,92 %
19.01.2026 19:08 1,3 °C 0,6 °C -2,8 °C 93 % 1020,5 hPa 0,0 l/m² 0 min 0 min 0 W/m² 16,1 km/h (3 Bft) 93,68 %
19.01.2026 19:10 1,3 °C 0,6 °C -2,8 °C 93 % 1020,5 hPa 0,0 l/m² 0 min 0 min 0 W/m² 16,1 km/h (3 Bft) 97,96 %
19.01.2026 19:12 1,3 °C 0,6 °C -2,8 °C 93 % 1020,4 hPa 0,0 l/m² 0 min 0 min 0 W/m² 12,9 km/h (3 Bft) 97,87 %
19.01.2026 19:14 1,3 °C 0,6 °C -2,8 °C 93 % 1020,4 hPa 0,0 l/m² 0 min 0 min 0 W/m² 12,9 km/h (3 Bft) 97,14 %
19.01.2026 19:16 1,3 °C 0,6 °C -2,8 °C 93 % 1020,4 hPa 0,0 l/m² 0 min 0 min 0 W/m² 12,9 km/h (3 Bft) 96,23 %
19.01.2026 19:18 1,3 °C 0,6 °C -2,8 °C 93 % 1020,5 hPa 0,0 l/m² 0 min 0 min 0 W/m² 16,1 km/h (3 Bft) 98,08 %
19.01.2026 19:20 1,2 °C 0,6 °C -2,8 °C 93 % 1020,5 hPa 0,0 l/m² 0 min 0 min 0 W/m² 16,1 km/h (3 Bft) 95,74 %
19.01.2026 19:22 1,2 °C 0,6 °C -2,8 °C 93 % 1020,4 hPa 0,0 l/m² 0 min 0 min 0 W/m² 16,1 km/h (3 Bft) 94,29 %
19.01.2026 19:24 1,2 °C 0,6 °C -2,8 °C 93 % 1020,5 hPa 0,0 l/m² 0 min 0 min 0 W/m² 9,7 km/h (2 Bft) 94,74 %
19.01.2026 19:26 1,2 °C 0,6 °C -2,8 °C 93 % 1020,5 hPa 0,0 l/m² 0 min 0 min 0 W/m² 12,9 km/h (3 Bft) 95,83 %
19.01.2026 19:28 1,2 °C 0,6 °C -2,8 °C 93 % 1020,5 hPa 0,0 l/m² 0 min 0 min 0 W/m² 12,9 km/h (3 Bft) 94,29 %
19.01.2026 19:30 1,2 °C 0,6 °C -2,8 °C 93 % 1020,5 hPa 0,0 l/m² 0 min 0 min 0 W/m² 16,1 km/h (3 Bft) 96,55 %
19.01.2026 19:32 1,2 °C 0,6 °C -2,8 °C 93 % 1020,5 hPa 0,0 l/m² 0 min 0 min 0 W/m² 12,9 km/h (3 Bft) 95,24 %
19.01.2026 19:34 1,2 °C 0,6 °C -2,8 °C 93 % 1020,5 hPa 0,0 l/m² 0 min 0 min 0 W/m² 16,1 km/h (3 Bft) 92,68 %
19.01.2026 19:36 1,1 °C 0,6 °C -2,8 °C 93 % 1020,5 hPa 0,0 l/m² 0 min 0 min 0 W/m² 12,9 km/h (3 Bft) 96,49 %
19.01.2026 19:38 1,1 °C 0,6 °C -2,8 °C 93 % 1020,4 hPa 0,0 l/m² 0 min 0 min 0 W/m² 16,1 km/h (3 Bft) 94,59 %
19.01.2026 19:40 1,1 °C 0,6 °C -2,8 °C 94 % 1020,5 hPa 0,0 l/m² 0 min 0 min 0 W/m² 16,1 km/h (3 Bft) 94,55 %
19.01.2026 19:42 1,1 °C 0,6 °C -2,8 °C 94 % 1020,5 hPa 0,0 l/m² 0 min 0 min 0 W/m² 6,4 km/h (2 Bft) 94,74 %
19.01.2026 19:44 1,1 °C 0,6 °C -2,8 °C 94 % 1020,5 hPa 0,0 l/m² 0 min 0 min 0 W/m² 9,7 km/h (2 Bft) 62,96 %
19.01.2026 19:46 1,1 °C 0,6 °C -2,8 °C 94 % 1020,4 hPa 0,0 l/m² 0 min 0 min 0 W/m² 9,7 km/h (2 Bft) 89,74 %
19.01.2026 19:48 1,1 °C 0,6 °C -2,8 °C 94 % 1020,5 hPa 0,0 l/m² 0 min 0 min 0 W/m² 22,5 km/h (4 Bft) 96,36 %
19.01.2026 19:50 1,1 °C 0,6 °C -2,8 °C 94 % 1020,5 hPa 0,0 l/m² 0 min 0 min 0 W/m² 12,9 km/h (3 Bft) 98,00 %
19.01.2026 19:52 1,1 °C 0,6 °C -2,8 °C 94 % 1020,6 hPa 0,0 l/m² 0 min 0 min 0 W/m² 6,4 km/h (2 Bft) 97,14 %
19.01.2026 19:54 1,1 °C 0,6 °C -2,8 °C 94 % 1020,5 hPa 0,0 l/m² 0 min 0 min 0 W/m² 12,9 km/h (3 Bft) 94,55 %
19.01.2026 19:56 1,1 °C 0,6 °C -2,8 °C 94 % 1020,5 hPa 0,0 l/m² 0 min 0 min 0 W/m² 19,3 km/h (3 Bft) 94,12 %
19.01.2026 19:58 1,0 °C 0,0 °C -2,8 °C 94 % 1020,6 hPa 0,0 l/m² 0 min 0 min 0 W/m² 12,9 km/h (3 Bft) 94,74 %
19.01.2026 20:00 1,0 °C 0,6 °C -2,8 °C 94 % 1020,6 hPa 0,0 l/m² 0 min 0 min 0 W/m² 12,9 km/h (3 Bft) 98,21 %
19.01.2026 20:02 1,0 °C 0,6 °C -2,8 °C 94 % 1020,7 hPa 0,0 l/m² 0 min 0 min 0 W/m² 12,9 km/h (3 Bft) 97,37 %
19.01.2026 20:04 1,0 °C 0,6 °C -2,8 °C 94 % 1020,7 hPa 0,0 l/m² 0 min 0 min 0 W/m² 6,4 km/h (2 Bft) 95,83 %
19.01.2026 20:08 1,0 °C 0,6 °C -2,8 °C 94 % 1020,7 hPa 0,0 l/m² 0 min 0 min 0 W/m² 16,1 km/h (3 Bft) 98,91 %
19.01.2026 20:10 1,0 °C 0,6 °C -2,8 °C 94 % 1020,7 hPa 0,0 l/m² 0 min 0 min 0 W/m² 12,9 km/h (3 Bft) 100,00 %
19.01.2026 20:12 1,0 °C 0,6 °C -2,8 °C 94 % 1020,7 hPa 0,0 l/m² 0 min 0 min 0 W/m² 12,9 km/h (3 Bft) 100,00 %
19.01.2026 20:14 1,0 °C 0,6 °C -2,8 °C 94 % 1020,7 hPa 0,0 l/m² 0 min 0 min 0 W/m² 12,9 km/h (3 Bft) 97,87 %
19.01.2026 20:16 1,0 °C 0,6 °C -2,8 °C 94 % 1020,7 hPa 0,0 l/m² 0 min 0 min 0 W/m² 19,3 km/h (3 Bft) 97,87 %
19.01.2026 20:18 1,0 °C 0,6 °C -2,8 °C 94 % 1020,7 hPa 0,0 l/m² 0 min 0 min 0 W/m² 22,5 km/h (4 Bft) 95,65 %
19.01.2026 20:20 1,0 °C 0,6 °C -2,8 °C 94 % 1020,7 hPa 0,0 l/m² 0 min 0 min 0 W/m² 19,3 km/h (3 Bft) 96,36 %
19.01.2026 20:22 0,9 °C 0,6 °C -2,8 °C 94 % 1020,7 hPa 0,0 l/m² 0 min 0 min 0 W/m² 16,1 km/h (3 Bft) 97,50 %
19.01.2026 20:24 1,0 °C 0,6 °C -2,8 °C 94 % 1020,7 hPa 0,0 l/m² 0 min 0 min 0 W/m² 22,5 km/h (4 Bft) 97,87 %
19.01.2026 20:26 1,0 °C 0,6 °C -2,8 °C 94 % 1020,7 hPa 0,0 l/m² 0 min 0 min 0 W/m² 19,3 km/h (3 Bft) 98,18 %
19.01.2026 20:28 0,9 °C 0,6 °C -2,8 °C 94 % 1020,7 hPa 0,0 l/m² 0 min 0 min 0 W/m² 19,3 km/h (3 Bft) 97,37 %
19.01.2026 20:30 0,9 °C 0,6 °C -2,8 °C 94 % 1020,7 hPa 0,0 l/m² 0 min 0 min 0 W/m² 16,1 km/h (3 Bft) 95,56 %
19.01.2026 20:32 0,9 °C 0,6 °C -2,8 °C 94 % 1020,8 hPa 0,0 l/m² 0 min 0 min 0 W/m² 16,1 km/h (3 Bft) 93,88 %
19.01.2026 20:34 0,9 °C 0,6 °C -2,8 °C 94 % 1020,8 hPa 0,0 l/m² 0 min 0 min 0 W/m² 16,1 km/h (3 Bft) 97,87 %
19.01.2026 20:36 0,9 °C 0,6 °C -2,8 °C 94 % 1020,8 hPa 0,0 l/m² 0 min 0 min 0 W/m² 12,9 km/h (3 Bft) 97,87 %
19.01.2026 20:38 0,9 °C 0,6 °C -2,8 °C 94 % 1020,9 hPa 0,0 l/m² 0 min 0 min 0 W/m² 16,1 km/h (3 Bft) 97,83 %
19.01.2026 20:40 0,9 °C 0,6 °C -2,8 °C 94 % 1020,8 hPa 0,0 l/m² 0 min 0 min 0 W/m² 16,1 km/h (3 Bft) 96,43 %
19.01.2026 20:42 0,9 °C 0,0 °C -2,8 °C 94 % 1020,8 hPa 0,0 l/m² 0 min 0 min 0 W/m² 25,7 km/h (4 Bft) 97,37 %
19.01.2026 20:44 0,9 °C 0,0 °C -2,8 °C 94 % 1020,8 hPa 0,0 l/m² 0 min 0 min 0 W/m² 12,9 km/h (3 Bft) 100,00 %
19.01.2026 20:46 0,9 °C 0,0 °C -2,8 °C 94 % 1020,8 hPa 0,0 l/m² 0 min 0 min 0 W/m² 16,1 km/h (3 Bft) 100,00 %
19.01.2026 20:48 0,9 °C 0,0 °C -2,8 °C 94 % 1020,8 hPa 0,0 l/m² 0 min 0 min 0 W/m² 16,1 km/h (3 Bft) 100,00 %
19.01.2026 20:50 0,9 °C 0,0 °C -2,8 °C 94 % 1020,7 hPa 0,0 l/m² 0 min 0 min 0 W/m² 19,3 km/h (3 Bft) 100,00 %
19.01.2026 20:52 0,9 °C 0,0 °C -2,8 °C 94 % 1020,8 hPa 0,0 l/m² 0 min 0 min 0 W/m² 16,1 km/h (3 Bft) 100,00 %
19.01.2026 20:54 0,9 °C 0,0 °C -2,8 °C 94 % 1020,8 hPa 0,0 l/m² 0 min 0 min 0 W/m² 16,1 km/h (3 Bft) 100,00 %
19.01.2026 20:56 0,9 °C 0,0 °C -2,8 °C 94 % 1020,8 hPa 0,0 l/m² 0 min 0 min 0 W/m² 16,1 km/h (3 Bft) 97,87 %
19.01.2026 20:58 0,8 °C 0,0 °C -2,8 °C 94 % 1020,8 hPa 0,0 l/m² 0 min 0 min 0 W/m² 12,9 km/h (3 Bft) 100,00 %
19.01.2026 21:00 0,8 °C 0,0 °C -2,8 °C 94 % 1020,8 hPa 0,0 l/m² 0 min 0 min 0 W/m² 16,1 km/h (3 Bft) 97,83 %
19.01.2026 21:02 0,8 °C 0,0 °C -2,8 °C 94 % 1020,8 hPa 0,0 l/m² 0 min 0 min 0 W/m² 16,1 km/h (3 Bft) 97,87 %
19.01.2026 21:04 0,8 °C 0,0 °C -2,8 °C 94 % 1020,7 hPa 0,0 l/m² 0 min 0 min 0 W/m² 12,9 km/h (3 Bft) 100,00 %
19.01.2026 21:08 0,8 °C 0,0 °C -2,8 °C 94 % 1020,7 hPa 0,0 l/m² 0 min 0 min 0 W/m² 16,1 km/h (3 Bft) 96,84 %
19.01.2026 21:10 0,8 °C 0,0 °C -2,8 °C 94 % 1020,7 hPa 0,0 l/m² 0 min 0 min 0 W/m² 16,1 km/h (3 Bft) 100,00 %
19.01.2026 21:12 0,8 °C 0,0 °C -2,8 °C 94 % 1020,7 hPa 0,0 l/m² 0 min 0 min 0 W/m² 12,9 km/h (3 Bft) 86,54 %
19.01.2026 21:14 0,8 °C 0,0 °C -2,8 °C 94 % 1020,8 hPa 0,0 l/m² 0 min 0 min 0 W/m² 9,7 km/h (2 Bft) 53,33 %
19.01.2026 21:16 0,8 °C 0,0 °C -2,8 °C 94 % 1020,7 hPa 0,0 l/m² 0 min 0 min 0 W/m² 16,1 km/h (3 Bft) 97,78 %
19.01.2026 21:18 0,8 °C 0,0 °C -2,8 °C 94 % 1020,8 hPa 0,0 l/m² 0 min 0 min 0 W/m² 16,1 km/h (3 Bft) 100,00 %
19.01.2026 21:20 0,8 °C 0,0 °C -2,8 °C 94 % 1020,7 hPa 0,0 l/m² 0 min 0 min 0 W/m² 12,9 km/h (3 Bft) 100,00 %
19.01.2026 21:22 0,8 °C 0,0 °C -2,8 °C 94 % 1020,7 hPa 0,0 l/m² 0 min 0 min 0 W/m² 12,9 km/h (3 Bft) 100,00 %
19.01.2026 21:24 0,7 °C 0,0 °C -2,8 °C 94 % 1020,7 hPa 0,0 l/m² 0 min 0 min 0 W/m² 12,9 km/h (3 Bft) 97,92 %
19.01.2026 21:26 0,7 °C 0,0 °C -2,8 °C 94 % 1020,7 hPa 0,0 l/m² 0 min 0 min 0 W/m² 12,9 km/h (3 Bft) 100,00 %
19.01.2026 21:28 0,7 °C 0,0 °C -2,8 °C 94 % 1020,8 hPa 0,0 l/m² 0 min 0 min 0 W/m² 12,9 km/h (3 Bft) 94,12 %
19.01.2026 21:30 0,7 °C 0,0 °C -2,8 °C 94 % 1020,8 hPa 0,0 l/m² 0 min 0 min 0 W/m² 12,9 km/h (3 Bft) 100,00 %
19.01.2026 21:32 0,7 °C 0,0 °C -2,8 °C 94 % 1020,8 hPa 0,0 l/m² 0 min 0 min 0 W/m² 12,9 km/h (3 Bft) 100,00 %
19.01.2026 21:34 0,7 °C 0,0 °C -2,8 °C 94 % 1020,8 hPa 0,0 l/m² 0 min 0 min 0 W/m² 12,9 km/h (3 Bft) 98,00 %
19.01.2026 21:36 0,7 °C 0,0 °C -2,8 °C 94 % 1020,8 hPa 0,0 l/m² 0 min 0 min 0 W/m² 6,4 km/h (2 Bft) 97,92 %
19.01.2026 21:38 0,6 °C 0,0 °C -2,8 °C 94 % 1020,9 hPa 0,0 l/m² 0 min 0 min 0 W/m² 12,9 km/h (3 Bft) 97,87 %
19.01.2026 21:40 0,6 °C 0,0 °C -2,8 °C 94 % 1020,9 hPa 0,0 l/m² 0 min 0 min 0 W/m² 12,9 km/h (3 Bft) 95,74 %
19.01.2026 21:42 0,6 °C 0,0 °C -3,3 °C 94 % 1020,9 hPa 0,0 l/m² 0 min 0 min 0 W/m² 12,9 km/h (3 Bft) 95,74 %
19.01.2026 21:44 0,6 °C 0,0 °C -3,3 °C 94 % 1020,9 hPa 0,0 l/m² 0 min 0 min 0 W/m² 12,9 km/h (3 Bft) 97,73 %
19.01.2026 21:46 0,6 °C 0,0 °C -3,3 °C 95 % 1020,9 hPa 0,0 l/m² 0 min 0 min 0 W/m² 9,7 km/h (2 Bft) 98,00 %
19.01.2026 21:48 0,6 °C 0,0 °C -3,3 °C 95 % 1020,9 hPa 0,0 l/m² 0 min 0 min 0 W/m² 12,9 km/h (3 Bft) 95,56 %
19.01.2026 21:50 0,6 °C 0,0 °C -3,3 °C 95 % 1020,9 hPa 0,0 l/m² 0 min 0 min 0 W/m² 16,1 km/h (3 Bft) 97,92 %
19.01.2026 21:52 0,6 °C 0,0 °C -3,3 °C 95 % 1021,0 hPa 0,0 l/m² 0 min 0 min 0 W/m² 12,9 km/h (3 Bft) 97,87 %
19.01.2026 21:54 0,6 °C 0,0 °C -3,3 °C 95 % 1020,9 hPa 0,0 l/m² 0 min 0 min 0 W/m² 12,9 km/h (3 Bft) 97,67 %
19.01.2026 21:56 0,6 °C 0,0 °C -3,3 °C 95 % 1020,9 hPa 0,0 l/m² 0 min 0 min 0 W/m² 12,9 km/h (3 Bft) 95,83 %
19.01.2026 21:58 0,6 °C 0,0 °C -3,3 °C 95 % 1020,9 hPa 0,0 l/m² 0 min 0 min 0 W/m² 12,9 km/h (3 Bft) 97,92 %
19.01.2026 22:00 0,6 °C 0,0 °C -3,3 °C 95 % 1020,9 hPa 0,0 l/m² 0 min 0 min 0 W/m² 12,9 km/h (3 Bft) 95,92 %
19.01.2026 22:02 0,6 °C 0,0 °C -3,3 °C 95 % 1020,9 hPa 0,0 l/m² 0 min 0 min 0 W/m² 12,9 km/h (3 Bft) 91,30 %
19.01.2026 22:04 0,6 °C 0,0 °C -3,3 °C 95 % 1020,9 hPa 0,0 l/m² 0 min 0 min 0 W/m² 6,4 km/h (2 Bft) 91,84 %
19.01.2026 22:06 0,6 °C 0,0 °C -3,3 °C 95 % 1020,9 hPa 0,0 l/m² 0 min 0 min 0 W/m² 6,4 km/h (2 Bft) 93,48 %
19.01.2026 22:08 0,6 °C -0,6 °C -3,3 °C 95 % 1020,8 hPa 0,0 l/m² 0 min 0 min 0 W/m² 6,4 km/h (2 Bft) 93,75 %
19.01.2026 22:10 0,6 °C -0,6 °C -3,3 °C 94 % 1020,8 hPa 0,0 l/m² 0 min 0 min 0 W/m² 6,4 km/h (2 Bft) 91,43 %
19.01.2026 22:12 0,6 °C -0,6 °C -3,3 °C 94 % 1020,9 hPa 0,0 l/m² 0 min 0 min 0 W/m² 9,7 km/h (2 Bft) 93,10 %
19.01.2026 22:14 0,5 °C -0,6 °C -3,3 °C 94 % 1020,9 hPa 0,0 l/m² 0 min 0 min 0 W/m² 6,4 km/h (2 Bft) 91,67 %
19.01.2026 22:16 0,5 °C -0,6 °C -3,3 °C 95 % 1020,8 hPa 0,0 l/m² 0 min 0 min 0 W/m² 6,4 km/h (2 Bft) 94,64 %
19.01.2026 22:18 0,5 °C -0,6 °C -3,3 °C 95 % 1020,9 hPa 0,0 l/m² 0 min 0 min 0 W/m² 6,4 km/h (2 Bft) 93,88 %
19.01.2026 22:20 0,4 °C -0,6 °C -3,3 °C 95 % 1020,9 hPa 0,0 l/m² 0 min 0 min 0 W/m² 6,4 km/h (2 Bft) 95,74 %
19.01.2026 22:22 0,4 °C -0,6 °C -3,3 °C 95 % 1020,9 hPa 0,0 l/m² 0 min 0 min 0 W/m² 3,2 km/h (1 Bft) 95,45 %
19.01.2026 22:24 0,4 °C -0,6 °C -3,3 °C 95 % 1020,9 hPa 0,0 l/m² 0 min 0 min 0 W/m² 6,4 km/h (2 Bft) 95,92 %
19.01.2026 22:26 0,4 °C -0,6 °C -3,3 °C 95 % 1020,9 hPa 0,0 l/m² 0 min 0 min 0 W/m² 9,7 km/h (2 Bft) 95,74 %
19.01.2026 22:28 0,4 °C -0,6 °C -3,3 °C 95 % 1020,9 hPa 0,0 l/m² 0 min 0 min 0 W/m² 6,4 km/h (2 Bft) 95,56 %
19.01.2026 22:30 0,4 °C -0,6 °C -3,3 °C 95 % 1020,8 hPa 0,0 l/m² 0 min 0 min 0 W/m² 6,4 km/h (2 Bft) 93,33 %
19.01.2026 22:32 0,3 °C -0,6 °C -3,3 °C 95 % 1020,8 hPa 0,0 l/m² 0 min 0 min 0 W/m² 6,4 km/h (2 Bft) 95,56 %
19.01.2026 22:34 0,3 °C -0,6 °C -3,3 °C 95 % 1020,8 hPa 0,0 l/m² 0 min 0 min 0 W/m² 6,4 km/h (2 Bft) 96,23 %
19.01.2026 22:36 0,3 °C -0,6 °C -3,3 °C 95 % 1020,8 hPa 0,0 l/m² 0 min 0 min 0 W/m² 9,7 km/h (2 Bft) 97,83 %
19.01.2026 22:38 0,3 °C -0,6 °C -3,3 °C 95 % 1020,8 hPa 0,0 l/m² 0 min 0 min 0 W/m² 6,4 km/h (2 Bft) 97,83 %
19.01.2026 22:40 0,3 °C -0,6 °C -3,3 °C 95 % 1020,8 hPa 0,0 l/m² 0 min 0 min 0 W/m² 3,2 km/h (1 Bft) 97,83 %
19.01.2026 22:42 0,3 °C -0,6 °C -3,3 °C 95 % 1020,8 hPa 0,0 l/m² 0 min 0 min 0 W/m² 6,4 km/h (2 Bft) 95,45 %
19.01.2026 22:44 0,3 °C -0,6 °C -3,3 °C 95 % 1020,9 hPa 0,0 l/m² 0 min 0 min 0 W/m² 6,4 km/h (2 Bft) 98,08 %
19.01.2026 22:46 0,3 °C -0,6 °C -3,3 °C 95 % 1020,9 hPa 0,0 l/m² 0 min 0 min 0 W/m² 12,9 km/h (3 Bft) 93,62 %
19.01.2026 22:48 0,3 °C -0,6 °C -3,3 °C 95 % 1020,9 hPa 0,0 l/m² 0 min 0 min 0 W/m² 16,1 km/h (3 Bft) 93,48 %
19.01.2026 22:50 0,3 °C -0,6 °C -3,3 °C 95 % 1020,9 hPa 0,0 l/m² 0 min 0 min 0 W/m² 12,9 km/h (3 Bft) 95,35 %
19.01.2026 22:52 0,2 °C -0,6 °C -3,3 °C 95 % 1020,9 hPa 0,0 l/m² 0 min 0 min 0 W/m² 12,9 km/h (3 Bft) 98,04 %
19.01.2026 22:54 0,2 °C -0,6 °C -3,3 °C 95 % 1021,0 hPa 0,0 l/m² 0 min 0 min 0 W/m² 9,7 km/h (2 Bft) 97,83 %
19.01.2026 22:56 0,2 °C -0,6 °C -3,3 °C 95 % 1020,9 hPa 0,0 l/m² 0 min 0 min 0 W/m² 12,9 km/h (3 Bft) 97,67 %
19.01.2026 22:58 0,2 °C -0,6 °C -3,3 °C 95 % 1020,9 hPa 0,0 l/m² 0 min 0 min 0 W/m² 9,7 km/h (2 Bft) 100,00 %
19.01.2026 23:00 0,2 °C -0,6 °C -3,3 °C 95 % 1020,9 hPa 0,0 l/m² 0 min 0 min 0 W/m² 16,1 km/h (3 Bft) 100,00 %
19.01.2026 23:02 0,2 °C -0,6 °C -3,3 °C 95 % 1020,9 hPa 0,0 l/m² 0 min 0 min 0 W/m² 16,1 km/h (3 Bft) 97,87 %
19.01.2026 23:04 0,2 °C -0,6 °C -3,3 °C 95 % 1020,9 hPa 0,0 l/m² 0 min 0 min 0 W/m² 12,9 km/h (3 Bft) 97,73 %
19.01.2026 23:06 0,2 °C -0,6 °C -3,3 °C 95 % 1021,0 hPa 0,0 l/m² 0 min 0 min 0 W/m² 16,1 km/h (3 Bft) 96,08 %
19.01.2026 23:08 0,2 °C -0,6 °C -3,3 °C 95 % 1021,0 hPa 0,0 l/m² 0 min 0 min 0 W/m² 12,9 km/h (3 Bft) 100,00 %
19.01.2026 23:10 0,3 °C -0,6 °C -3,3 °C 95 % 1021,0 hPa 0,0 l/m² 0 min 0 min 0 W/m² 12,9 km/h (3 Bft) 100,00 %
19.01.2026 23:12 0,3 °C -0,6 °C -3,3 °C 95 % 1021,0 hPa 0,0 l/m² 0 min 0 min 0 W/m² 12,9 km/h (3 Bft) 97,78 %
19.01.2026 23:14 0,3 °C -0,6 °C -3,3 °C 95 % 1021,1 hPa 0,0 l/m² 0 min 0 min 0 W/m² 12,9 km/h (3 Bft) 97,78 %
19.01.2026 23:16 0,3 °C -0,6 °C -3,3 °C 95 % 1021,1 hPa 0,0 l/m² 0 min 0 min 0 W/m² 6,4 km/h (2 Bft) 100,00 %
19.01.2026 23:18 0,3 °C -0,6 °C -3,3 °C 95 % 1021,1 hPa 0,0 l/m² 0 min 0 min 0 W/m² 9,7 km/h (2 Bft) 97,83 %
19.01.2026 23:20 0,3 °C -0,6 °C -3,3 °C 95 % 1021,1 hPa 0,0 l/m² 0 min 0 min 0 W/m² 12,9 km/h (3 Bft) 100,00 %
19.01.2026 23:22 0,3 °C -0,6 °C -3,3 °C 95 % 1021,1 hPa 0,0 l/m² 0 min 0 min 0 W/m² 12,9 km/h (3 Bft) 65,96 %
19.01.2026 23:24 0,3 °C 0,0 °C -3,3 °C 95 % 1021,1 hPa 0,0 l/m² 0 min 0 min 0 W/m² 16,1 km/h (3 Bft) 84,00 %
19.01.2026 23:26 0,3 °C 0,0 °C -3,3 °C 95 % 1021,1 hPa 0,0 l/m² 0 min 0 min 0 W/m² 12,9 km/h (3 Bft) 97,37 %
19.01.2026 23:28 0,3 °C 0,0 °C -3,3 °C 95 % 1021,0 hPa 0,0 l/m² 0 min 0 min 0 W/m² 22,5 km/h (4 Bft) 100,00 %
19.01.2026 23:30 0,3 °C 0,0 °C -3,3 °C 95 % 1021,0 hPa 0,0 l/m² 0 min 0 min 0 W/m² 16,1 km/h (3 Bft) 97,83 %
19.01.2026 23:32 0,3 °C 0,0 °C -3,3 °C 95 % 1021,0 hPa 0,0 l/m² 0 min 0 min 0 W/m² 16,1 km/h (3 Bft) 100,00 %
19.01.2026 23:34 0,3 °C 0,0 °C -3,3 °C 95 % 1021,0 hPa 0,0 l/m² 0 min 0 min 0 W/m² 22,5 km/h (4 Bft) 100,00 %
19.01.2026 23:36 0,4 °C 0,0 °C -3,3 °C 95 % 1021,0 hPa 0,0 l/m² 0 min 0 min 0 W/m² 19,3 km/h (3 Bft) 98,36 %
19.01.2026 23:38 0,4 °C 0,0 °C -3,3 °C 95 % 1021,0 hPa 0,0 l/m² 0 min 0 min 0 W/m² 22,5 km/h (4 Bft) 100,00 %
19.01.2026 23:40 0,4 °C 0,0 °C -3,3 °C 95 % 1021,0 hPa 0,0 l/m² 0 min 0 min 0 W/m² 16,1 km/h (3 Bft) 100,00 %
19.01.2026 23:42 0,4 °C 0,0 °C -3,3 °C 95 % 1020,9 hPa 0,0 l/m² 0 min 0 min 0 W/m² 19,3 km/h (3 Bft) 98,15 %
19.01.2026 23:44 0,4 °C 0,0 °C -3,3 °C 95 % 1021,0 hPa 0,0 l/m² 0 min 0 min 0 W/m² 19,3 km/h (3 Bft) 97,50 %
19.01.2026 23:46 0,4 °C 0,0 °C -3,3 °C 95 % 1021,0 hPa 0,0 l/m² 0 min 0 min 0 W/m² 19,3 km/h (3 Bft) 100,00 %
19.01.2026 23:48 0,4 °C 0,0 °C -3,3 °C 96 % 1020,9 hPa 0,0 l/m² 0 min 0 min 0 W/m² 16,1 km/h (3 Bft) 95,35 %
19.01.2026 23:50 0,4 °C 0,0 °C -3,3 °C 96 % 1020,9 hPa 0,0 l/m² 0 min 0 min 0 W/m² 16,1 km/h (3 Bft) 97,50 %
19.01.2026 23:52 0,4 °C 0,0 °C -3,3 °C 96 % 1021,0 hPa 0,0 l/m² 0 min 0 min 0 W/m² 16,1 km/h (3 Bft) 93,62 %
19.01.2026 23:54 0,4 °C 0,0 °C -3,3 °C 96 % 1020,9 hPa 0,0 l/m² 0 min 0 min 0 W/m² 12,9 km/h (3 Bft) 95,74 %
19.01.2026 23:56 0,4 °C 0,0 °C -3,3 °C 96 % 1020,9 hPa 0,0 l/m² 0 min 0 min 0 W/m² 16,1 km/h (3 Bft) 95,74 %
19.01.2026 23:58 0,4 °C 0,0 °C -3,3 °C 96 % 1021,0 hPa 0,0 l/m² 0 min 0 min 0 W/m² 9,7 km/h (2 Bft) 94,74 %
_ Min-Zeit 22:52 05:10 04:09 14:54 05:56 - - - - 03:18 18:58
Minimum _ 0,2 °C -0,6 °C -3,3 °C 86 % 1018,6 hPa - - - - 0,0 km/h (0 Bft) 37,50 %
_ Max-Zeit 14:22 12:54 11:58 23:48 23:14 00:00 11:08 00:00 12:54 12:08 00:24
Maximum _ 4,4 °C 9,4 °C 0,0 °C 96 % 1021,1 hPa 0,0 l/m² 4 min 0 min 346 W/m² 25,7 km/h
SW (4 Bft)
100,00 %
Durchschnitt _ 1,7 °C 1,5 °C -2,1 °C 93 % 1019,8 hPa #0,0 l/m² #2:52 h #0 min. 109 W/m² 10,9 km/h (2 Bft) 96,77 %
© 2026 W. Hausmann